PWSweather.com
Personal Weather Stations
Station Observations
DL5ARK
SonnebergDE

SonnebergDE

Lat: 50.34904861, Lon: 11.18112087

Elevation: 1214

Station Type: Selfmade

http://www.sumbarg.de

High Low Average
Temperature 47.5°F8.6°C 35.4°F1.9°C 40.1°F4.5°C
Dew Point 44.7°F7.1°C 38.2°F3.4°C 41.4°F5.2°C
Winds 11.6 mph 18.7 kmh Calm Calm 2.0 mph SW3.2 kmh SW
Wind Gusts 11.7 mph18.8 kmh -- 2.0 mph3.2 kmh
Humidity 91% 59% 81%
Pressure 30.23 in1023.7 mb 29.93 in1013.5 mb -
Precipitation 0.04 in1.0 mm - -
Hour Temp Dew Point Humidity Winds Wind Gusts Pressure Precip Precip Rate Daily Precip Total
12:01 AM 36.4°F2.4°C 40.9°F4.9°C 87% Calm Calm -- 29.93 in1013.5 mb 0.00 in0.0 mm 0.00 in0.0 mm 0.00 in0.0 mm
12:04 AM 36.3°F2.4°C 40.7°F4.8°C 87% 1.2 mph NNW1.9 kmh NNW 1.2 mph1.9 kmh 29.93 in1013.5 mb 0.00 in0.0 mm 0.00 in0.0 mm 0.00 in0.0 mm
12:07 AM 36.6°F2.6°C 40.7°F4.8°C 87% 2.8 mph 4.5 kmh 2.9 mph4.7 kmh 29.93 in1013.5 mb 0.00 in0.0 mm 0.00 in0.0 mm 0.00 in0.0 mm
12:10 AM 36.2°F2.3°C 40.6°F4.8°C 87% 2.3 mph 3.7 kmh 2.3 mph3.7 kmh 29.93 in1013.5 mb 0.00 in0.0 mm 0.00 in0.0 mm 0.00 in0.0 mm
12:13 AM 36.3°F2.4°C 40.4°F4.7°C 87% 2.0 mph NNW3.2 kmh NNW 2.0 mph3.2 kmh 29.93 in1013.5 mb 0.00 in0.0 mm 0.00 in0.0 mm 0.00 in0.0 mm
12:16 AM 36.2°F2.3°C 40.4°F4.7°C 87% 0.8 mph 1.3 kmh 0.8 mph1.3 kmh 29.93 in1013.5 mb 0.00 in0.0 mm 0.00 in0.0 mm 0.00 in0.0 mm
12:19 AM 36.3°F2.4°C 40.5°F4.7°C 87% 1.2 mph 1.9 kmh 1.2 mph1.9 kmh 29.93 in1013.5 mb 0.00 in0.0 mm 0.00 in0.0 mm 0.00 in0.0 mm
12:22 AM 36.4°F2.4°C 40.3°F4.6°C 87% Calm Calm -- 29.93 in1013.5 mb 0.00 in0.0 mm 0.00 in0.0 mm 0.00 in0.0 mm
12:25 AM 36.6°F2.6°C 40.5°F4.7°C 87% 2.4 mph 3.9 kmh 2.4 mph3.9 kmh 29.93 in1013.5 mb 0.00 in0.0 mm 0.00 in0.0 mm 0.00 in0.0 mm
12:28 AM 37.1°F2.8°C 40.6°F4.8°C 88% 2.4 mph NNW3.9 kmh NNW 2.4 mph3.9 kmh 29.93 in1013.5 mb 0.00 in0.0 mm 0.00 in0.0 mm 0.00 in0.0 mm
12:31 AM 37.1°F2.8°C 40.7°F4.8°C 88% 2.8 mph 4.5 kmh 2.8 mph4.5 kmh 29.93 in1013.5 mb 0.00 in0.0 mm 0.00 in0.0 mm 0.00 in0.0 mm
12:34 AM 37.2°F2.9°C 40.9°F4.9°C 89% 2.0 mph 3.2 kmh 2.0 mph3.2 kmh 29.93 in1013.5 mb 0.00 in0.0 mm 0.00 in0.0 mm 0.00 in0.0 mm
12:37 AM 37.0°F2.8°C 40.6°F4.8°C 88% 2.4 mph 3.9 kmh 2.4 mph3.9 kmh 29.93 in1013.5 mb 0.00 in0.0 mm 0.00 in0.0 mm 0.00 in0.0 mm
12:40 AM 37.2°F2.9°C 40.7°F4.8°C 89% 3.6 mph 5.8 kmh 3.7 mph6.0 kmh 29.94 in1013.9 mb 0.00 in0.0 mm 0.00 in0.0 mm 0.00 in0.0 mm
12:43 AM 37.2°F2.9°C 40.9°F4.9°C 89% 0.8 mph 1.3 kmh 0.8 mph1.3 kmh 29.94 in1013.9 mb 0.00 in0.0 mm 0.00 in0.0 mm 0.00 in0.0 mm
12:46 AM 37.5°F3.1°C 40.8°F4.9°C 89% 3.6 mph 5.8 kmh 3.7 mph6.0 kmh 29.93 in1013.5 mb 0.00 in0.0 mm 0.00 in0.0 mm 0.00 in0.0 mm
12:49 AM 37.6°F3.1°C 40.9°F4.9°C 88% 2.8 mph NNW4.5 kmh NNW 2.8 mph4.5 kmh 29.94 in1013.9 mb 0.00 in0.0 mm 0.00 in0.0 mm 0.00 in0.0 mm
12:52 AM 37.5°F3.1°C 40.9°F4.9°C 89% 2.8 mph NNW4.5 kmh NNW 2.9 mph4.7 kmh 29.94 in1013.9 mb 0.00 in0.0 mm 0.00 in0.0 mm 0.00 in0.0 mm
12:55 AM 37.5°F3.1°C 41.3°F5.2°C 89% 0.8 mph 1.3 kmh 0.8 mph1.3 kmh 29.93 in1013.5 mb 0.00 in0.0 mm 0.00 in0.0 mm 0.00 in0.0 mm
12:58 AM 37.7°F3.2°C 40.9°F4.9°C 88% 2.0 mph NNW3.2 kmh NNW 2.0 mph3.2 kmh 29.94 in1013.9 mb 0.00 in0.0 mm 0.00 in0.0 mm 0.00 in0.0 mm
01:01 AM 37.5°F3.1°C 41.1°F5.1°C 89% 2.0 mph NW3.2 kmh NW 2.0 mph3.2 kmh 29.94 in1013.9 mb 0.00 in0.0 mm 0.00 in0.0 mm 0.00 in0.0 mm
01:04 AM 37.6°F3.1°C 40.9°F4.9°C 88% 2.0 mph 3.2 kmh 2.0 mph3.2 kmh 29.94 in1013.9 mb 0.00 in0.0 mm 0.00 in0.0 mm 0.00 in0.0 mm
01:07 AM 37.7°F3.2°C 41.4°F5.2°C 89% 3.2 mph 5.1 kmh 3.2 mph5.1 kmh 29.94 in1013.9 mb 0.00 in0.0 mm 0.00 in0.0 mm 0.00 in0.0 mm
01:10 AM 38.1°F3.4°C 41.4°F5.2°C 89% 2.4 mph NNW3.9 kmh NNW 2.5 mph4.0 kmh 29.94 in1013.9 mb 0.00 in0.0 mm 0.00 in0.0 mm 0.00 in0.0 mm
01:13 AM 37.7°F3.2°C 41.5°F5.3°C 89% 3.6 mph NNW5.8 kmh NNW 3.7 mph6.0 kmh 29.94 in1013.9 mb 0.00 in0.0 mm 0.00 in0.0 mm 0.00 in0.0 mm
01:16 AM 37.5°F3.1°C 41.2°F5.1°C 89% 1.6 mph 2.6 kmh 1.6 mph2.6 kmh 29.94 in1013.9 mb 0.00 in0.0 mm 0.00 in0.0 mm 0.00 in0.0 mm
01:19 AM 37.4°F3.0°C 41.5°F5.3°C 89% 1.2 mph 1.9 kmh 1.2 mph1.9 kmh 29.94 in1013.9 mb 0.00 in0.0 mm 0.00 in0.0 mm 0.00 in0.0 mm
01:22 AM 37.2°F2.9°C 41.5°F5.3°C 89% 1.9 mph NNW3.1 kmh NNW 1.9 mph3.1 kmh 29.94 in1013.9 mb 0.00 in0.0 mm 0.00 in0.0 mm 0.00 in0.0 mm
01:25 AM 36.8°F2.7°C 41.3°F5.2°C 89% 2.8 mph NW4.5 kmh NW 2.8 mph4.5 kmh 29.94 in1013.9 mb 0.00 in0.0 mm 0.00 in0.0 mm 0.00 in0.0 mm
01:28 AM 36.7°F2.6°C 41.1°F5.1°C 88% 0.8 mph 1.3 kmh 0.8 mph1.3 kmh 29.94 in1013.9 mb 0.00 in0.0 mm 0.00 in0.0 mm 0.00 in0.0 mm
01:31 AM 36.8°F2.7°C 41.1°F5.1°C 88% 1.5 mph NNW2.4 kmh NNW 1.6 mph2.6 kmh 29.94 in1013.9 mb 0.00 in0.0 mm 0.00 in0.0 mm 0.00 in0.0 mm
01:34 AM 36.7°F2.6°C 41.2°F5.1°C 88% Calm Calm -- 29.94 in1013.9 mb 0.00 in0.0 mm 0.00 in0.0 mm 0.00 in0.0 mm
01:37 AM 36.7°F2.6°C 41.1°F5.1°C 88% Calm Calm -- 29.95 in1014.2 mb 0.00 in0.0 mm 0.00 in0.0 mm 0.00 in0.0 mm
01:40 AM 36.8°F2.7°C 41.3°F5.2°C 88% Calm Calm -- 29.94 in1013.9 mb 0.00 in0.0 mm 0.00 in0.0 mm 0.00 in0.0 mm
01:43 AM 37.2°F2.9°C 41.1°F5.1°C 88% Calm Calm -- 29.95 in1014.2 mb 0.00 in0.0 mm 0.00 in0.0 mm 0.02 in0.5 mm
01:46 AM 37.4°F3.0°C 41.2°F5.1°C 88% Calm Calm -- 29.95 in1014.2 mb 0.00 in0.0 mm 0.00 in0.0 mm 0.02 in0.5 mm
01:49 AM 37.4°F3.0°C 41.2°F5.1°C 89% 3.0 mph NW4.8 kmh NW 3.0 mph4.8 kmh 29.95 in1014.2 mb 0.00 in0.0 mm 0.00 in0.0 mm 0.02 in0.5 mm
01:52 AM 38.0°F3.3°C 41.1°F5.1°C 88% 1.6 mph NW2.6 kmh NW 1.6 mph2.6 kmh 29.95 in1014.2 mb 0.00 in0.0 mm 0.00 in0.0 mm 0.02 in0.5 mm
01:58 AM 38.3°F3.5°C 41.5°F5.3°C 90% 3.9 mph NNW6.3 kmh NNW 3.9 mph6.3 kmh 29.95 in1014.2 mb 0.00 in0.0 mm 0.00 in0.0 mm 0.04 in1.0 mm
02:01 AM 38.6°F3.7°C 41.6°F5.3°C 90% 3.2 mph NNW5.1 kmh NNW 3.3 mph5.3 kmh 29.95 in1014.2 mb 0.00 in0.0 mm 0.00 in0.0 mm 0.04 in1.0 mm
02:04 AM 38.6°F3.7°C 42.0°F5.6°C 90% 2.4 mph NNW3.9 kmh NNW 2.4 mph3.9 kmh 29.95 in1014.2 mb 0.00 in0.0 mm 0.00 in0.0 mm 0.04 in1.0 mm
02:07 AM 38.4°F3.6°C 42.0°F5.6°C 90% 4.0 mph NNW6.4 kmh NNW 4.1 mph6.6 kmh 29.94 in1013.9 mb 0.00 in0.0 mm 0.00 in0.0 mm 0.04 in1.0 mm
02:10 AM 38.3°F3.5°C 42.2°F5.7°C 91% 5.7 mph NW9.2 kmh NW 5.7 mph9.2 kmh 29.95 in1014.2 mb 0.00 in0.0 mm 0.00 in0.0 mm 0.04 in1.0 mm
02:13 AM 38.1°F3.4°C 42.1°F5.6°C 90% 2.4 mph NNW3.9 kmh NNW 2.4 mph3.9 kmh 29.94 in1013.9 mb 0.00 in0.0 mm 0.00 in0.0 mm 0.04 in1.0 mm
02:16 AM 37.6°F3.1°C 42.1°F5.6°C 89% Calm Calm -- 29.94 in1013.9 mb 0.00 in0.0 mm 0.00 in0.0 mm 0.04 in1.0 mm
02:19 AM 37.4°F3.0°C 41.9°F5.5°C 89% 2.0 mph NW3.2 kmh NW 2.0 mph3.2 kmh 29.94 in1013.9 mb 0.00 in0.0 mm 0.00 in0.0 mm 0.04 in1.0 mm
02:22 AM 37.7°F3.2°C 41.9°F5.5°C 89% 2.0 mph NNW3.2 kmh NNW 2.0 mph3.2 kmh 29.95 in1014.2 mb 0.00 in0.0 mm 0.00 in0.0 mm 0.04 in1.0 mm
02:25 AM 37.9°F3.3°C 41.9°F5.5°C 89% 3.6 mph NNW5.8 kmh NNW 3.6 mph5.8 kmh 29.95 in1014.2 mb 0.00 in0.0 mm 0.00 in0.0 mm 0.04 in1.0 mm
02:31 AM 38.4°F3.6°C 41.8°F5.4°C 89% 4.0 mph 6.4 kmh 4.1 mph6.6 kmh 29.95 in1014.2 mb 0.00 in0.0 mm 0.00 in0.0 mm 0.04 in1.0 mm
02:34 AM 38.2°F3.4°C 41.6°F5.3°C 89% 2.8 mph NW4.5 kmh NW 2.9 mph4.7 kmh 29.95 in1014.2 mb 0.00 in0.0 mm 0.00 in0.0 mm 0.04 in1.0 mm
02:37 AM 38.0°F3.3°C 41.8°F5.4°C 89% 0.4 mph NNW0.6 kmh NNW 0.4 mph0.6 kmh 29.96 in1014.6 mb 0.00 in0.0 mm 0.00 in0.0 mm 0.04 in1.0 mm
02:40 AM 38.0°F3.3°C 41.8°F5.4°C 89% 1.6 mph 2.6 kmh 1.6 mph2.6 kmh 29.96 in1014.6 mb 0.00 in0.0 mm 0.00 in0.0 mm 0.04 in1.0 mm
02:43 AM 37.7°F3.2°C 41.9°F5.5°C 89% 0.4 mph NNW0.6 kmh NNW 0.4 mph0.6 kmh 29.96 in1014.6 mb 0.00 in0.0 mm 0.00 in0.0 mm 0.04 in1.0 mm
02:46 AM 37.4°F3.0°C 41.5°F5.3°C 88% Calm Calm -- 29.96 in1014.6 mb 0.00 in0.0 mm 0.00 in0.0 mm 0.04 in1.0 mm
02:49 AM 37.4°F3.0°C 41.6°F5.3°C 88% Calm Calm -- 29.96 in1014.6 mb 0.00 in0.0 mm 0.00 in0.0 mm 0.04 in1.0 mm
02:52 AM 37.1°F2.8°C 41.9°F5.5°C 89% Calm Calm -- 29.96 in1014.6 mb 0.00 in0.0 mm 0.00 in0.0 mm 0.04 in1.0 mm
02:55 AM 37.2°F2.9°C 41.8°F5.4°C 88% Calm Calm -- 29.96 in1014.6 mb 0.00 in0.0 mm 0.00 in0.0 mm 0.04 in1.0 mm
02:58 AM 37.0°F2.8°C 41.7°F5.4°C 88% Calm Calm -- 29.96 in1014.6 mb 0.00 in0.0 mm 0.00 in0.0 mm 0.04 in1.0 mm
03:01 AM 36.6°F2.6°C 41.5°F5.3°C 88% Calm Calm -- 29.96 in1014.6 mb 0.00 in0.0 mm 0.00 in0.0 mm 0.04 in1.0 mm
03:04 AM 36.8°F2.7°C 41.2°F5.1°C 87% Calm Calm -- 29.96 in1014.6 mb 0.00 in0.0 mm 0.00 in0.0 mm 0.04 in1.0 mm
03:07 AM 36.4°F2.4°C 41.7°F5.4°C 88% Calm Calm -- 29.96 in1014.6 mb 0.00 in0.0 mm 0.00 in0.0 mm 0.04 in1.0 mm
03:10 AM 36.4°F2.4°C 41.4°F5.2°C 88% Calm Calm -- 29.96 in1014.6 mb 0.00 in0.0 mm 0.00 in0.0 mm 0.04 in1.0 mm
03:13 AM 36.5°F2.5°C 41.3°F5.2°C 88% Calm Calm -- 29.96 in1014.6 mb 0.00 in0.0 mm 0.00 in0.0 mm 0.04 in1.0 mm
03:16 AM 36.6°F2.6°C 41.3°F5.2°C 88% Calm Calm -- 29.96 in1014.6 mb 0.00 in0.0 mm 0.00 in0.0 mm 0.04 in1.0 mm
03:19 AM 36.7°F2.6°C 41.3°F5.2°C 88% Calm Calm -- 29.96 in1014.6 mb 0.00 in0.0 mm 0.00 in0.0 mm 0.04 in1.0 mm
03:22 AM 37.0°F2.8°C 41.2°F5.1°C 88% 0.8 mph NNW1.3 kmh NNW 0.8 mph1.3 kmh 29.96 in1014.6 mb 0.00 in0.0 mm 0.00 in0.0 mm 0.04 in1.0 mm
03:25 AM 36.7°F2.6°C 41.0°F5.0°C 88% Calm Calm -- 29.96 in1014.6 mb 0.00 in0.0 mm 0.00 in0.0 mm 0.04 in1.0 mm
03:28 AM 36.7°F2.6°C 41.1°F5.1°C 88% Calm Calm -- 29.96 in1014.6 mb 0.00 in0.0 mm 0.00 in0.0 mm 0.04 in1.0 mm
03:31 AM 36.7°F2.6°C 41.1°F5.1°C 88% Calm Calm -- 29.96 in1014.6 mb 0.00 in0.0 mm 0.00 in0.0 mm 0.04 in1.0 mm
03:34 AM 36.8°F2.7°C 40.9°F4.9°C 88% Calm Calm -- 29.96 in1014.6 mb 0.00 in0.0 mm 0.00 in0.0 mm 0.04 in1.0 mm
03:37 AM 37.0°F2.8°C 41.0°F5.0°C 88% Calm Calm -- 29.96 in1014.6 mb 0.00 in0.0 mm 0.00 in0.0 mm 0.04 in1.0 mm
03:40 AM 37.2°F2.9°C 41.2°F5.1°C 88% Calm Calm -- 29.96 in1014.6 mb 0.00 in0.0 mm 0.00 in0.0 mm 0.04 in1.0 mm
03:43 AM 37.2°F2.9°C 41.1°F5.1°C 88% Calm Calm -- 29.96 in1014.6 mb 0.00 in0.0 mm 0.00 in0.0 mm 0.04 in1.0 mm
03:46 AM 37.6°F3.1°C 41.1°F5.1°C 89% Calm Calm -- 29.96 in1014.6 mb 0.00 in0.0 mm 0.00 in0.0 mm 0.04 in1.0 mm
03:49 AM 37.5°F3.1°C 41.3°F5.2°C 89% Calm Calm -- 29.96 in1014.6 mb 0.00 in0.0 mm 0.00 in0.0 mm 0.04 in1.0 mm
03:52 AM 37.1°F2.8°C 41.3°F5.2°C 89% 0.4 mph NNW0.6 kmh NNW 0.4 mph0.6 kmh 29.96 in1014.6 mb 0.00 in0.0 mm 0.00 in0.0 mm 0.04 in1.0 mm
03:55 AM 37.1°F2.8°C 41.2°F5.1°C 88% Calm Calm -- 29.96 in1014.6 mb 0.00 in0.0 mm 0.00 in0.0 mm 0.04 in1.0 mm
03:58 AM 36.8°F2.7°C 41.2°F5.1°C 88% 0.4 mph NW0.6 kmh NW 0.4 mph0.6 kmh 29.96 in1014.6 mb 0.00 in0.0 mm 0.00 in0.0 mm 0.04 in1.0 mm
04:01 AM 36.8°F2.7°C 41.2°F5.1°C 88% 0.8 mph NW1.3 kmh NW 0.8 mph1.3 kmh 29.96 in1014.6 mb 0.00 in0.0 mm 0.00 in0.0 mm 0.04 in1.0 mm
04:04 AM 37.0°F2.8°C 41.4°F5.2°C 88% Calm Calm -- 29.96 in1014.6 mb 0.00 in0.0 mm 0.00 in0.0 mm 0.04 in1.0 mm
04:07 AM 36.8°F2.7°C 40.9°F4.9°C 87% Calm Calm -- 29.96 in1014.6 mb 0.00 in0.0 mm 0.00 in0.0 mm 0.04 in1.0 mm
04:10 AM 36.7°F2.6°C 41.3°F5.2°C 88% Calm Calm -- 29.96 in1014.6 mb 0.00 in0.0 mm 0.00 in0.0 mm 0.00 in0.0 mm
04:13 AM 36.4°F2.4°C 41.1°F5.1°C 88% Calm Calm -- 29.96 in1014.6 mb 0.00 in0.0 mm 0.00 in0.0 mm 0.04 in1.0 mm
04:16 AM 36.5°F2.5°C 41.1°F5.1°C 88% Calm Calm -- 29.97 in1014.9 mb 0.00 in0.0 mm 0.00 in0.0 mm 0.04 in1.0 mm
04:19 AM 36.6°F2.6°C 41.0°F5.0°C 88% Calm Calm -- 29.96 in1014.6 mb 0.00 in0.0 mm 0.00 in0.0 mm 0.04 in1.0 mm
04:22 AM 36.5°F2.5°C 41.2°F5.1°C 89% Calm Calm -- 29.97 in1014.9 mb 0.00 in0.0 mm 0.00 in0.0 mm 0.04 in1.0 mm
04:25 AM 36.5°F2.5°C 41.1°F5.1°C 88% Calm Calm -- 29.97 in1014.9 mb 0.00 in0.0 mm 0.00 in0.0 mm 0.04 in1.0 mm
04:28 AM 36.6°F2.6°C 41.2°F5.1°C 89% Calm Calm -- 29.97 in1014.9 mb 0.00 in0.0 mm 0.00 in0.0 mm 0.04 in1.0 mm
04:31 AM 36.4°F2.4°C 41.0°F5.0°C 88% Calm Calm -- 29.97 in1014.9 mb 0.00 in0.0 mm 0.00 in0.0 mm 0.04 in1.0 mm
04:34 AM 36.4°F2.4°C 41.1°F5.1°C 89% Calm Calm -- 29.97 in1014.9 mb 0.00 in0.0 mm 0.00 in0.0 mm 0.04 in1.0 mm
04:37 AM 36.5°F2.5°C 41.1°F5.1°C 88% Calm Calm -- 29.97 in1014.9 mb 0.00 in0.0 mm 0.00 in0.0 mm 0.04 in1.0 mm
04:40 AM 36.6°F2.6°C 40.7°F4.8°C 87% Calm Calm -- 29.97 in1014.9 mb 0.00 in0.0 mm 0.00 in0.0 mm 0.04 in1.0 mm
04:43 AM 36.7°F2.6°C 41.1°F5.1°C 89% Calm Calm -- 29.98 in1015.2 mb 0.00 in0.0 mm 0.00 in0.0 mm 0.04 in1.0 mm
04:46 AM 37.3°F2.9°C 41.2°F5.1°C 89% 1.2 mph NW1.9 kmh NW 1.2 mph1.9 kmh 29.98 in1015.2 mb 0.00 in0.0 mm 0.00 in0.0 mm 0.04 in1.0 mm
04:49 AM 37.5°F3.1°C 41.3°F5.2°C 90% Calm Calm -- 29.98 in1015.2 mb 0.00 in0.0 mm 0.00 in0.0 mm 0.04 in1.0 mm
04:52 AM 37.7°F3.2°C 41.4°F5.2°C 89% 2.4 mph NW3.9 kmh NW 2.5 mph4.0 kmh 29.98 in1015.2 mb 0.00 in0.0 mm 0.00 in0.0 mm 0.04 in1.0 mm
04:55 AM 38.0°F3.3°C 41.2°F5.1°C 89% 1.6 mph NNW2.6 kmh NNW 1.6 mph2.6 kmh 29.98 in1015.2 mb 0.00 in0.0 mm 0.00 in0.0 mm 0.04 in1.0 mm
04:58 AM 38.1°F3.4°C 41.8°F5.4°C 90% 2.4 mph NW3.9 kmh NW 2.4 mph3.9 kmh 29.98 in1015.2 mb 0.00 in0.0 mm 0.00 in0.0 mm 0.04 in1.0 mm
05:01 AM 38.3°F3.5°C 41.7°F5.4°C 90% 2.4 mph 3.9 kmh 2.5 mph4.0 kmh 29.98 in1015.2 mb 0.00 in0.0 mm 0.00 in0.0 mm 0.04 in1.0 mm
05:04 AM 38.6°F3.7°C 41.5°F5.3°C 89% 2.0 mph NNW3.2 kmh NNW 2.0 mph3.2 kmh 29.98 in1015.2 mb 0.00 in0.0 mm 0.00 in0.0 mm 0.04 in1.0 mm
05:07 AM 38.6°F3.7°C 41.8°F5.4°C 90% 0.4 mph 0.6 kmh 0.4 mph0.6 kmh 29.98 in1015.2 mb 0.00 in0.0 mm 0.00 in0.0 mm 0.04 in1.0 mm
05:10 AM 38.5°F3.6°C 42.2°F5.7°C 90% 0.4 mph NW0.6 kmh NW 0.4 mph0.6 kmh 29.98 in1015.2 mb 0.00 in0.0 mm 0.00 in0.0 mm 0.04 in1.0 mm
05:13 AM 38.5°F3.6°C 42.0°F5.6°C 90% 0.8 mph NNE1.3 kmh NNE 0.8 mph1.3 kmh 29.98 in1015.2 mb 0.00 in0.0 mm 0.00 in0.0 mm 0.04 in1.0 mm
05:16 AM 38.4°F3.6°C 42.2°F5.7°C 90% 2.0 mph NW3.2 kmh NW 2.0 mph3.2 kmh 29.99 in1015.6 mb 0.00 in0.0 mm 0.00 in0.0 mm 0.04 in1.0 mm
05:19 AM 38.3°F3.5°C 42.2°F5.7°C 90% 3.5 mph WNW5.6 kmh WNW 3.5 mph5.6 kmh 29.98 in1015.2 mb 0.00 in0.0 mm 0.00 in0.0 mm 0.04 in1.0 mm
05:22 AM 38.5°F3.6°C 42.1°F5.6°C 90% Calm Calm -- 29.99 in1015.6 mb 0.00 in0.0 mm 0.00 in0.0 mm 0.04 in1.0 mm
05:25 AM 38.8°F3.8°C 42.1°F5.6°C 90% 2.8 mph NNW4.5 kmh NNW 2.8 mph4.5 kmh 29.98 in1015.2 mb 0.00 in0.0 mm 0.00 in0.0 mm 0.04 in1.0 mm
05:28 AM 38.8°F3.8°C 41.9°F5.5°C 89% 2.4 mph 3.9 kmh 2.4 mph3.9 kmh 29.98 in1015.2 mb 0.00 in0.0 mm 0.00 in0.0 mm 0.04 in1.0 mm
05:31 AM 39.0°F3.9°C 42.1°F5.6°C 90% 2.8 mph NW4.5 kmh NW 2.9 mph4.7 kmh 29.99 in1015.6 mb 0.00 in0.0 mm 0.00 in0.0 mm 0.04 in1.0 mm
05:34 AM 38.9°F3.8°C 42.2°F5.7°C 90% 1.6 mph NW2.6 kmh NW 1.6 mph2.6 kmh 29.99 in1015.6 mb 0.00 in0.0 mm 0.00 in0.0 mm 0.04 in1.0 mm
05:37 AM 39.1°F3.9°C 42.4°F5.8°C 90% 1.6 mph 2.6 kmh 1.6 mph2.6 kmh 29.99 in1015.6 mb 0.00 in0.0 mm 0.00 in0.0 mm 0.04 in1.0 mm
05:40 AM 39.0°F3.9°C 42.3°F5.7°C 90% 1.2 mph NNW1.9 kmh NNW 1.2 mph1.9 kmh 29.99 in1015.6 mb 0.00 in0.0 mm 0.00 in0.0 mm 0.04 in1.0 mm
05:43 AM 39.0°F3.9°C 42.5°F5.8°C 90% 1.2 mph NNW1.9 kmh NNW 1.2 mph1.9 kmh 29.99 in1015.6 mb 0.00 in0.0 mm 0.00 in0.0 mm 0.04 in1.0 mm
05:46 AM 39.0°F3.9°C 42.3°F5.7°C 90% 2.0 mph NNW3.2 kmh NNW 2.0 mph3.2 kmh 30.00 in1015.9 mb 0.00 in0.0 mm 0.00 in0.0 mm 0.04 in1.0 mm
05:49 AM 38.8°F3.8°C 42.3°F5.7°C 90% 1.2 mph NW1.9 kmh NW 1.2 mph1.9 kmh 29.99 in1015.6 mb 0.00 in0.0 mm 0.00 in0.0 mm 0.04 in1.0 mm
05:52 AM 38.8°F3.8°C 42.3°F5.7°C 89% 2.4 mph 3.9 kmh 2.5 mph4.0 kmh 30.00 in1015.9 mb 0.00 in0.0 mm 0.00 in0.0 mm 0.04 in1.0 mm
05:55 AM 38.9°F3.8°C 42.3°F5.7°C 90% 2.0 mph NNW3.2 kmh NNW 2.0 mph3.2 kmh 29.98 in1015.2 mb 0.00 in0.0 mm 0.00 in0.0 mm 0.04 in1.0 mm
05:58 AM 38.8°F3.8°C 42.3°F5.7°C 90% 2.8 mph NNW4.5 kmh NNW 2.9 mph4.7 kmh 29.99 in1015.6 mb 0.00 in0.0 mm 0.00 in0.0 mm 0.04 in1.0 mm
06:04 AM 39.1°F3.9°C 42.3°F5.7°C 90% 4.0 mph NNW6.4 kmh NNW 4.1 mph6.6 kmh 30.00 in1015.9 mb 0.00 in0.0 mm 0.00 in0.0 mm 0.04 in1.0 mm
06:07 AM 38.6°F3.7°C 42.2°F5.7°C 89% Calm Calm -- 30.00 in1015.9 mb 0.00 in0.0 mm 0.00 in0.0 mm 0.04 in1.0 mm
06:10 AM 38.8°F3.8°C 42.4°F5.8°C 89% 1.5 mph 2.4 kmh 1.6 mph2.6 kmh 30.00 in1015.9 mb 0.00 in0.0 mm 0.00 in0.0 mm 0.04 in1.0 mm
06:13 AM 38.8°F3.8°C 42.4°F5.8°C 89% 1.6 mph NNW2.6 kmh NNW 1.6 mph2.6 kmh 30.00 in1015.9 mb 0.00 in0.0 mm 0.00 in0.0 mm 0.04 in1.0 mm
06:16 AM 38.8°F3.8°C 42.3°F5.7°C 89% 2.0 mph NW3.2 kmh NW 2.0 mph3.2 kmh 30.00 in1015.9 mb 0.00 in0.0 mm 0.00 in0.0 mm 0.04 in1.0 mm
06:19 AM 38.8°F3.8°C 42.1°F5.6°C 89% 3.9 mph 6.3 kmh 3.9 mph6.3 kmh 30.01 in1016.3 mb 0.00 in0.0 mm 0.00 in0.0 mm 0.04 in1.0 mm
06:22 AM 38.9°F3.8°C 41.9°F5.5°C 88% 2.8 mph NNW4.5 kmh NNW 2.8 mph4.5 kmh 30.01 in1016.3 mb 0.00 in0.0 mm 0.00 in0.0 mm 0.04 in1.0 mm
06:25 AM 38.8°F3.8°C 42.4°F5.8°C 89% 3.2 mph NNW5.1 kmh NNW 3.2 mph5.1 kmh 30.01 in1016.3 mb 0.00 in0.0 mm 0.00 in0.0 mm 0.04 in1.0 mm
06:28 AM 38.8°F3.8°C 42.0°F5.6°C 88% 4.0 mph NNW6.4 kmh NNW 4.0 mph6.4 kmh 30.01 in1016.3 mb 0.00 in0.0 mm 0.00 in0.0 mm 0.04 in1.0 mm
06:31 AM 38.9°F3.8°C 42.3°F5.7°C 89% 3.6 mph 5.8 kmh 3.6 mph5.8 kmh 30.01 in1016.3 mb 0.00 in0.0 mm 0.00 in0.0 mm 0.04 in1.0 mm
06:34 AM 38.5°F3.6°C 42.0°F5.6°C 89% 3.6 mph NW5.8 kmh NW 3.6 mph5.8 kmh 30.01 in1016.3 mb 0.00 in0.0 mm 0.00 in0.0 mm 0.04 in1.0 mm
06:37 AM 38.5°F3.6°C 41.9°F5.5°C 88% 2.0 mph NNW3.2 kmh NNW 2.0 mph3.2 kmh 30.01 in1016.3 mb 0.00 in0.0 mm 0.00 in0.0 mm 0.04 in1.0 mm
06:40 AM 38.1°F3.4°C 42.2°F5.7°C 89% Calm Calm -- 30.01 in1016.3 mb 0.00 in0.0 mm 0.00 in0.0 mm 0.04 in1.0 mm
06:43 AM 38.3°F3.5°C 42.0°F5.6°C 89% 2.8 mph NNW4.5 kmh NNW 2.8 mph4.5 kmh 30.01 in1016.3 mb 0.00 in0.0 mm 0.00 in0.0 mm 0.04 in1.0 mm
06:46 AM 38.4°F3.6°C 42.1°F5.6°C 88% 4.0 mph NW6.4 kmh NW 4.1 mph6.6 kmh 30.01 in1016.3 mb 0.00 in0.0 mm 0.00 in0.0 mm 0.04 in1.0 mm
06:49 AM 38.3°F3.5°C 42.0°F5.6°C 88% 1.2 mph NNW1.9 kmh NNW 1.2 mph1.9 kmh 30.01 in1016.3 mb 0.00 in0.0 mm 0.00 in0.0 mm 0.04 in1.0 mm
06:52 AM 38.3°F3.5°C 41.9°F5.5°C 88% Calm Calm -- 30.01 in1016.3 mb 0.00 in0.0 mm 0.00 in0.0 mm 0.04 in1.0 mm
06:55 AM 38.2°F3.4°C 42.0°F5.6°C 88% 2.0 mph 3.2 kmh 2.0 mph3.2 kmh 30.01 in1016.3 mb 0.00 in0.0 mm 0.00 in0.0 mm 0.04 in1.0 mm
07:01 AM 38.2°F3.4°C 41.8°F5.4°C 88% Calm Calm -- 30.02 in1016.6 mb 0.00 in0.0 mm 0.00 in0.0 mm 0.04 in1.0 mm
07:04 AM 38.4°F3.6°C 41.8°F5.4°C 88% 2.4 mph 3.9 kmh 2.4 mph3.9 kmh 30.03 in1016.9 mb 0.00 in0.0 mm 0.00 in0.0 mm 0.04 in1.0 mm
07:07 AM 38.4°F3.6°C 41.8°F5.4°C 88% 4.0 mph 6.4 kmh 4.0 mph6.4 kmh 30.03 in1016.9 mb 0.00 in0.0 mm 0.00 in0.0 mm 0.04 in1.0 mm
07:10 AM 38.6°F3.7°C 41.9°F5.5°C 88% 3.6 mph NW5.8 kmh NW 3.6 mph5.8 kmh 30.02 in1016.6 mb 0.00 in0.0 mm 0.00 in0.0 mm 0.04 in1.0 mm
07:13 AM 38.3°F3.5°C 42.1°F5.6°C 88% 2.0 mph WNW3.2 kmh WNW 2.0 mph3.2 kmh 30.03 in1016.9 mb 0.00 in0.0 mm 0.00 in0.0 mm 0.04 in1.0 mm
07:16 AM 38.2°F3.4°C 41.9°F5.5°C 88% 2.3 mph NW3.7 kmh NW 2.3 mph3.7 kmh 30.03 in1016.9 mb 0.00 in0.0 mm 0.00 in0.0 mm 0.04 in1.0 mm
07:19 AM 38.2°F3.4°C 42.1°F5.6°C 89% 1.6 mph NW2.6 kmh NW 1.6 mph2.6 kmh 30.03 in1016.9 mb 0.00 in0.0 mm 0.00 in0.0 mm 0.04 in1.0 mm
07:22 AM 38.2°F3.4°C 41.7°F5.4°C 88% 2.8 mph NW4.5 kmh NW 2.9 mph4.7 kmh 30.03 in1016.9 mb 0.00 in0.0 mm 0.00 in0.0 mm 0.04 in1.0 mm
07:25 AM 38.3°F3.5°C 41.9°F5.5°C 89% 1.9 mph NW3.1 kmh NW 1.9 mph3.1 kmh 30.03 in1016.9 mb 0.00 in0.0 mm 0.00 in0.0 mm 0.04 in1.0 mm
07:28 AM 38.4°F3.6°C 42.0°F5.6°C 89% 1.2 mph NW1.9 kmh NW 1.2 mph1.9 kmh 30.03 in1016.9 mb 0.00 in0.0 mm 0.00 in0.0 mm 0.04 in1.0 mm
07:31 AM 38.5°F3.6°C 42.2°F5.7°C 89% 2.0 mph NNW3.2 kmh NNW 2.0 mph3.2 kmh 30.03 in1016.9 mb 0.00 in0.0 mm 0.00 in0.0 mm 0.04 in1.0 mm
07:37 AM 38.8°F3.8°C 42.1°F5.6°C 89% 0.8 mph NNW1.3 kmh NNW 0.8 mph1.3 kmh 30.04 in1017.3 mb 0.00 in0.0 mm 0.00 in0.0 mm 0.04 in1.0 mm
07:40 AM 38.6°F3.7°C 42.1°F5.6°C 88% Calm Calm -- 30.04 in1017.3 mb 0.00 in0.0 mm 0.00 in0.0 mm 0.04 in1.0 mm
07:43 AM 38.5°F3.6°C 42.0°F5.6°C 89% 0.4 mph NNW0.6 kmh NNW 0.4 mph0.6 kmh 30.04 in1017.3 mb 0.00 in0.0 mm 0.00 in0.0 mm 0.04 in1.0 mm
07:46 AM 38.5°F3.6°C 41.8°F5.4°C 88% 0.8 mph NNW1.3 kmh NNW 0.8 mph1.3 kmh 30.04 in1017.3 mb 0.00 in0.0 mm 0.00 in0.0 mm 0.04 in1.0 mm
07:49 AM 38.6°F3.7°C 42.1°F5.6°C 88% Calm Calm -- 30.04 in1017.3 mb 0.00 in0.0 mm 0.00 in0.0 mm 0.04 in1.0 mm
07:52 AM 38.6°F3.7°C 42.2°F5.7°C 88% Calm Calm -- 30.04 in1017.3 mb 0.00 in0.0 mm 0.00 in0.0 mm 0.04 in1.0 mm
07:55 AM 38.8°F3.8°C 42.2°F5.7°C 88% Calm Calm -- 30.04 in1017.3 mb 0.00 in0.0 mm 0.00 in0.0 mm 0.04 in1.0 mm
07:58 AM 38.9°F3.8°C 42.2°F5.7°C 88% Calm Calm -- 30.05 in1017.6 mb 0.00 in0.0 mm 0.00 in0.0 mm 0.04 in1.0 mm
08:01 AM 38.9°F3.8°C 42.2°F5.7°C 88% Calm Calm -- 30.06 in1017.9 mb 0.00 in0.0 mm 0.00 in0.0 mm 0.04 in1.0 mm
08:04 AM 38.9°F3.8°C 42.2°F5.7°C 88% Calm Calm -- 30.05 in1017.6 mb 0.00 in0.0 mm 0.00 in0.0 mm 0.04 in1.0 mm
08:07 AM 39.2°F4.0°C 42.3°F5.7°C 89% 1.6 mph 2.6 kmh 1.6 mph2.6 kmh 30.05 in1017.6 mb 0.00 in0.0 mm 0.00 in0.0 mm 0.04 in1.0 mm
08:10 AM 39.4°F4.1°C 42.0°F5.6°C 87% 2.8 mph NW4.5 kmh NW 2.8 mph4.5 kmh 30.06 in1017.9 mb 0.00 in0.0 mm 0.00 in0.0 mm 0.04 in1.0 mm
08:13 AM 39.4°F4.1°C 42.2°F5.7°C 88% 2.4 mph NNW3.9 kmh NNW 2.4 mph3.9 kmh 30.06 in1017.9 mb 0.00 in0.0 mm 0.00 in0.0 mm 0.04 in1.0 mm
08:16 AM 40.0°F4.4°C 42.7°F5.9°C 89% 0.4 mph NNW0.6 kmh NNW 0.4 mph0.6 kmh 30.06 in1017.9 mb 0.00 in0.0 mm 0.00 in0.0 mm 0.04 in1.0 mm
08:19 AM 40.1°F4.5°C 43.1°F6.2°C 90% 1.2 mph NW1.9 kmh NW 1.2 mph1.9 kmh 30.06 in1017.9 mb 0.00 in0.0 mm 0.00 in0.0 mm 0.04 in1.0 mm
08:22 AM 40.2°F4.6°C 43.2°F6.2°C 89% 3.8 mph NW6.1 kmh NW 3.8 mph6.1 kmh 30.06 in1017.9 mb 0.00 in0.0 mm 0.00 in0.0 mm 0.04 in1.0 mm
08:25 AM 40.3°F4.6°C 43.1°F6.2°C 88% 1.2 mph NW1.9 kmh NW 1.2 mph1.9 kmh 30.06 in1017.9 mb 0.00 in0.0 mm 0.00 in0.0 mm 0.04 in1.0 mm
08:28 AM 40.7°F4.8°C 43.2°F6.2°C 88% 0.8 mph NNW1.3 kmh NNW 0.8 mph1.3 kmh 30.06 in1017.9 mb 0.00 in0.0 mm 0.00 in0.0 mm 0.04 in1.0 mm
08:34 AM 41.1°F5.1°C 43.9°F6.6°C 89% 0.8 mph NNW1.3 kmh NNW 0.8 mph1.3 kmh 30.06 in1017.9 mb 0.00 in0.0 mm 0.00 in0.0 mm 0.04 in1.0 mm
08:40 AM 41.3°F5.2°C 43.5°F6.4°C 88% 3.2 mph WNW5.1 kmh WNW 3.3 mph5.3 kmh 30.07 in1018.3 mb 0.00 in0.0 mm 0.00 in0.0 mm 0.04 in1.0 mm
08:43 AM 41.9°F5.5°C 43.8°F6.6°C 88% Calm Calm -- 30.07 in1018.3 mb 0.00 in0.0 mm 0.00 in0.0 mm 0.04 in1.0 mm
08:46 AM 41.6°F5.3°C 44.0°F6.7°C 88% 1.2 mph W1.9 kmh W 1.2 mph1.9 kmh 30.07 in1018.3 mb 0.00 in0.0 mm 0.00 in0.0 mm 0.04 in1.0 mm
08:49 AM 42.0°F5.6°C 43.7°F6.5°C 87% 5.3 mph NW8.5 kmh NW 5.3 mph8.5 kmh 30.07 in1018.3 mb 0.00 in0.0 mm 0.00 in0.0 mm 0.04 in1.0 mm
08:52 AM 41.9°F5.5°C 43.6°F6.4°C 87% 4.9 mph NW7.9 kmh NW 4.9 mph7.9 kmh 30.07 in1018.3 mb 0.00 in0.0 mm 0.00 in0.0 mm 0.04 in1.0 mm
08:55 AM 41.9°F5.5°C 43.9°F6.6°C 87% 5.2 mph NNW8.4 kmh NNW 5.2 mph8.4 kmh 30.07 in1018.3 mb 0.00 in0.0 mm 0.00 in0.0 mm 0.04 in1.0 mm
08:58 AM 41.9°F5.5°C 43.8°F6.6°C 87% 4.0 mph WSW6.4 kmh WSW 4.1 mph6.6 kmh 30.07 in1018.3 mb 0.00 in0.0 mm 0.00 in0.0 mm 0.04 in1.0 mm
09:01 AM 41.9°F5.5°C 43.7°F6.5°C 87% 2.8 mph NW4.5 kmh NW 2.9 mph4.7 kmh 30.06 in1017.9 mb 0.00 in0.0 mm 0.00 in0.0 mm 0.04 in1.0 mm
09:04 AM 41.8°F5.4°C 43.5°F6.4°C 86% 5.8 mph NNW9.3 kmh NNW 5.8 mph9.3 kmh 30.07 in1018.3 mb 0.00 in0.0 mm 0.00 in0.0 mm 0.04 in1.0 mm
09:07 AM 41.8°F5.4°C 43.6°F6.4°C 86% 2.0 mph NW3.2 kmh NW 2.0 mph3.2 kmh 30.07 in1018.3 mb 0.00 in0.0 mm 0.00 in0.0 mm 0.04 in1.0 mm
09:10 AM 41.6°F5.3°C 43.6°F6.4°C 86% 4.4 mph NW7.1 kmh NW 4.5 mph7.2 kmh 30.07 in1018.3 mb 0.00 in0.0 mm 0.00 in0.0 mm 0.04 in1.0 mm
09:13 AM 41.5°F5.3°C 43.8°F6.6°C 87% 1.6 mph W2.6 kmh W 1.6 mph2.6 kmh 30.07 in1018.3 mb 0.00 in0.0 mm 0.00 in0.0 mm 0.04 in1.0 mm
09:16 AM 41.0°F5.0°C 43.3°F6.3°C 86% 5.5 mph NNW8.9 kmh NNW 5.5 mph8.9 kmh 30.07 in1018.3 mb 0.00 in0.0 mm 0.00 in0.0 mm 0.04 in1.0 mm
09:19 AM 40.9°F4.9°C 42.9°F6.1°C 85% 8.5 mph NNW13.7 kmh NNW 8.5 mph13.7 kmh 30.07 in1018.3 mb 0.00 in0.0 mm 0.00 in0.0 mm 0.04 in1.0 mm
09:22 AM 40.7°F4.8°C 43.4°F6.3°C 86% 3.2 mph NNW5.1 kmh NNW 3.2 mph5.1 kmh 30.08 in1018.6 mb 0.00 in0.0 mm 0.00 in0.0 mm 0.04 in1.0 mm
09:25 AM 40.7°F4.8°C 43.3°F6.3°C 86% 4.4 mph 7.1 kmh 4.5 mph7.2 kmh 30.07 in1018.3 mb 0.00 in0.0 mm 0.00 in0.0 mm 0.04 in1.0 mm
09:31 AM 40.3°F4.6°C 43.1°F6.2°C 86% 2.8 mph NNW4.5 kmh NNW 2.8 mph4.5 kmh 30.08 in1018.6 mb 0.00 in0.0 mm 0.00 in0.0 mm 0.04 in1.0 mm
09:34 AM 40.3°F4.6°C 43.1°F6.2°C 86% 2.4 mph NW3.9 kmh NW 2.4 mph3.9 kmh 30.08 in1018.6 mb 0.00 in0.0 mm 0.00 in0.0 mm 0.04 in1.0 mm
09:37 AM 40.7°F4.8°C 43.3°F6.3°C 86% 5.2 mph NW8.4 kmh NW 5.3 mph8.5 kmh 30.07 in1018.3 mb 0.00 in0.0 mm 0.00 in0.0 mm 0.04 in1.0 mm
09:40 AM 41.1°F5.1°C 43.3°F6.3°C 86% 4.4 mph NNW7.1 kmh NNW 4.5 mph7.2 kmh 30.08 in1018.6 mb 0.00 in0.0 mm 0.00 in0.0 mm 0.04 in1.0 mm
09:43 AM 41.8°F5.4°C 43.7°F6.5°C 86% 2.7 mph NNW4.3 kmh NNW 2.7 mph4.3 kmh 30.08 in1018.6 mb 0.00 in0.0 mm 0.00 in0.0 mm 0.04 in1.0 mm
09:46 AM 42.5°F5.8°C 44.0°F6.7°C 87% 1.6 mph NNW2.6 kmh NNW 1.6 mph2.6 kmh 30.08 in1018.6 mb 0.00 in0.0 mm 0.00 in0.0 mm 0.04 in1.0 mm
09:49 AM 43.0°F6.1°C 44.3°F6.8°C 87% 1.6 mph NW2.6 kmh NW 1.6 mph2.6 kmh 30.08 in1018.6 mb 0.00 in0.0 mm 0.00 in0.0 mm 0.04 in1.0 mm
09:52 AM 43.8°F6.6°C 44.1°F6.7°C 86% 4.0 mph NW6.4 kmh NW 4.0 mph6.4 kmh 30.08 in1018.6 mb 0.00 in0.0 mm 0.00 in0.0 mm 0.04 in1.0 mm
09:55 AM 44.0°F6.7°C 44.3°F6.8°C 86% 6.1 mph WNW9.8 kmh WNW 6.1 mph9.8 kmh 30.08 in1018.6 mb 0.00 in0.0 mm 0.00 in0.0 mm 0.04 in1.0 mm
09:58 AM 43.7°F6.5°C 44.1°F6.7°C 86% 3.2 mph NW5.1 kmh NW 3.2 mph5.1 kmh 30.08 in1018.6 mb 0.00 in0.0 mm 0.00 in0.0 mm 0.04 in1.0 mm
10:01 AM 43.7°F6.5°C 44.7°F7.1°C 86% 3.6 mph 5.8 kmh 3.7 mph6.0 kmh 30.08 in1018.6 mb 0.00 in0.0 mm 0.00 in0.0 mm 0.04 in1.0 mm
10:04 AM 42.9°F6.1°C 44.2°F6.8°C 84% 5.2 mph NW8.4 kmh NW 5.2 mph8.4 kmh 30.08 in1018.6 mb 0.00 in0.0 mm 0.00 in0.0 mm 0.04 in1.0 mm
10:10 AM 42.7°F5.9°C 43.5°F6.4°C 83% 4.0 mph NNW6.4 kmh NNW 4.1 mph6.6 kmh 30.08 in1018.6 mb 0.00 in0.0 mm 0.00 in0.0 mm 0.04 in1.0 mm
10:13 AM 42.6°F5.9°C 43.4°F6.3°C 83% 5.7 mph NNW9.2 kmh NNW 5.7 mph9.2 kmh 30.08 in1018.6 mb 0.00 in0.0 mm 0.00 in0.0 mm 0.04 in1.0 mm
10:16 AM 42.6°F5.9°C 43.7°F6.5°C 83% 6.9 mph NNW11.1 kmh NNW 6.9 mph11.1 kmh 30.09 in1019.0 mb 0.00 in0.0 mm 0.00 in0.0 mm 0.04 in1.0 mm
10:19 AM 42.4°F5.8°C 43.2°F6.2°C 82% 2.4 mph NNW3.9 kmh NNW 2.4 mph3.9 kmh 30.08 in1018.6 mb 0.00 in0.0 mm 0.00 in0.0 mm 0.04 in1.0 mm
10:22 AM 42.4°F5.8°C 43.5°F6.4°C 83% 4.3 mph NNW6.9 kmh NNW 4.3 mph6.9 kmh 30.09 in1019.0 mb 0.00 in0.0 mm 0.00 in0.0 mm 0.04 in1.0 mm
10:25 AM 42.9°F6.1°C 43.9°F6.6°C 84% 1.6 mph NNW2.6 kmh NNW 1.6 mph2.6 kmh 30.08 in1018.6 mb 0.00 in0.0 mm 0.00 in0.0 mm 0.04 in1.0 mm
10:28 AM 43.3°F6.3°C 44.1°F6.7°C 84% 5.6 mph NW9.0 kmh NW 5.6 mph9.0 kmh 30.09 in1019.0 mb 0.00 in0.0 mm 0.00 in0.0 mm 0.04 in1.0 mm
10:31 AM 43.7°F6.5°C 43.8°F6.6°C 83% 5.9 mph NW9.5 kmh NW 6.0 mph9.7 kmh 30.09 in1019.0 mb 0.00 in0.0 mm 0.00 in0.0 mm 0.04 in1.0 mm
10:34 AM 43.7°F6.5°C 43.3°F6.3°C 81% 4.8 mph NNW7.7 kmh NNW 4.8 mph7.7 kmh 30.09 in1019.0 mb 0.00 in0.0 mm 0.00 in0.0 mm 0.04 in1.0 mm
10:37 AM 43.9°F6.6°C 43.1°F6.2°C 80% 5.2 mph 8.4 kmh 5.2 mph8.4 kmh 30.09 in1019.0 mb 0.00 in0.0 mm 0.00 in0.0 mm 0.04 in1.0 mm
10:40 AM 43.7°F6.5°C 43.4°F6.3°C 81% 5.6 mph NNW9.0 kmh NNW 5.6 mph9.0 kmh 30.09 in1019.0 mb 0.00 in0.0 mm 0.00 in0.0 mm 0.04 in1.0 mm
10:43 AM 44.2°F6.8°C 43.5°F6.4°C 80% 4.0 mph NNW6.4 kmh NNW 4.1 mph6.6 kmh 30.08 in1018.6 mb 0.00 in0.0 mm 0.00 in0.0 mm 0.04 in1.0 mm
10:46 AM 44.9°F7.2°C 43.9°F6.6°C 82% 3.2 mph 5.1 kmh 3.2 mph5.1 kmh 30.10 in1019.3 mb 0.00 in0.0 mm 0.00 in0.0 mm 0.04 in1.0 mm
10:49 AM 44.2°F6.8°C 43.6°F6.4°C 80% 4.4 mph NW7.1 kmh NW 4.5 mph7.2 kmh 30.10 in1019.3 mb 0.00 in0.0 mm 0.00 in0.0 mm 0.04 in1.0 mm
10:52 AM 43.7°F6.5°C 43.4°F6.3°C 79% 5.3 mph NW8.5 kmh NW 5.3 mph8.5 kmh 30.09 in1019.0 mb 0.00 in0.0 mm 0.00 in0.0 mm 0.04 in1.0 mm
10:55 AM 44.0°F6.7°C 42.1°F5.6°C 77% 6.8 mph NE10.9 kmh NE 6.8 mph10.9 kmh 30.10 in1019.3 mb 0.00 in0.0 mm 0.00 in0.0 mm 0.04 in1.0 mm
10:58 AM 44.7°F7.1°C 42.7°F5.9°C 78% 4.4 mph 7.1 kmh 4.5 mph7.2 kmh 30.10 in1019.3 mb 0.00 in0.0 mm 0.00 in0.0 mm 0.04 in1.0 mm
11:01 AM 45.1°F7.3°C 42.2°F5.7°C 76% 2.8 mph 4.5 kmh 2.9 mph4.7 kmh 30.10 in1019.3 mb 0.00 in0.0 mm 0.00 in0.0 mm 0.04 in1.0 mm
11:04 AM 44.7°F7.1°C 43.0°F6.1°C 77% 4.4 mph NE7.1 kmh NE 4.4 mph7.1 kmh 30.10 in1019.3 mb 0.00 in0.0 mm 0.00 in0.0 mm 0.04 in1.0 mm
11:07 AM 44.4°F6.9°C 42.7°F5.9°C 76% 4.0 mph 6.4 kmh 4.0 mph6.4 kmh 30.10 in1019.3 mb 0.00 in0.0 mm 0.00 in0.0 mm 0.04 in1.0 mm
11:10 AM 44.4°F6.9°C 42.4°F5.8°C 75% 4.4 mph NNW7.1 kmh NNW 4.5 mph7.2 kmh 30.10 in1019.3 mb 0.00 in0.0 mm 0.00 in0.0 mm 0.04 in1.0 mm
11:13 AM 44.3°F6.8°C 41.2°F5.1°C 73% 6.7 mph NNW10.8 kmh NNW 6.8 mph10.9 kmh 30.10 in1019.3 mb 0.00 in0.0 mm 0.00 in0.0 mm 0.04 in1.0 mm
11:16 AM 44.6°F7.0°C 41.4°F5.2°C 72% 3.2 mph NNE5.1 kmh NNE 3.3 mph5.3 kmh 30.10 in1019.3 mb 0.00 in0.0 mm 0.00 in0.0 mm 0.04 in1.0 mm
11:19 AM 44.5°F6.9°C 41.1°F5.1°C 72% 5.6 mph NNW9.0 kmh NNW 5.6 mph9.0 kmh 30.10 in1019.3 mb 0.00 in0.0 mm 0.00 in0.0 mm 0.04 in1.0 mm
11:22 AM 44.8°F7.1°C 41.1°F5.1°C 71% 4.0 mph NW6.4 kmh NW 4.1 mph6.6 kmh 30.10 in1019.3 mb 0.00 in0.0 mm 0.00 in0.0 mm 0.04 in1.0 mm
11:25 AM 45.6°F7.6°C 42.1°F5.6°C 74% 5.9 mph NW9.5 kmh NW 5.9 mph9.5 kmh 30.10 in1019.3 mb 0.00 in0.0 mm 0.00 in0.0 mm 0.04 in1.0 mm
11:28 AM 45.7°F7.6°C 42.2°F5.7°C 72% 7.0 mph NNW11.3 kmh NNW 7.1 mph11.4 kmh 30.10 in1019.3 mb 0.00 in0.0 mm 0.00 in0.0 mm 0.04 in1.0 mm
11:31 AM 44.9°F7.2°C 40.9°F4.9°C 69% 6.1 mph 9.8 kmh 6.1 mph9.8 kmh 30.10 in1019.3 mb 0.00 in0.0 mm 0.00 in0.0 mm 0.04 in1.0 mm
11:34 AM 45.7°F7.6°C 42.3°F5.7°C 72% 5.2 mph NNW8.4 kmh NNW 5.2 mph8.4 kmh 30.10 in1019.3 mb 0.00 in0.0 mm 0.00 in0.0 mm 0.04 in1.0 mm
11:37 AM 45.3°F7.4°C 42.5°F5.8°C 73% 5.7 mph NNW9.2 kmh NNW 5.7 mph9.2 kmh 30.10 in1019.3 mb 0.00 in0.0 mm 0.00 in0.0 mm 0.04 in1.0 mm
11:40 AM 45.2°F7.3°C 43.4°F6.3°C 74% 0.8 mph 1.3 kmh 0.8 mph1.3 kmh 30.10 in1019.3 mb 0.00 in0.0 mm 0.00 in0.0 mm 0.04 in1.0 mm
11:46 AM 45.8°F7.7°C 43.3°F6.3°C 74% 3.2 mph 5.1 kmh 3.2 mph5.1 kmh 30.10 in1019.3 mb 0.00 in0.0 mm 0.00 in0.0 mm 0.04 in1.0 mm
11:49 AM 45.8°F7.7°C 43.0°F6.1°C 73% 1.6 mph NW2.6 kmh NW 1.6 mph2.6 kmh 30.10 in1019.3 mb 0.00 in0.0 mm 0.00 in0.0 mm 0.04 in1.0 mm
11:52 AM 45.4°F7.4°C 42.3°F5.7°C 71% 1.6 mph NNW2.6 kmh NNW 1.6 mph2.6 kmh 30.10 in1019.3 mb 0.00 in0.0 mm 0.00 in0.0 mm 0.04 in1.0 mm
11:55 AM 45.1°F7.3°C 40.3°F4.6°C 66% 3.6 mph 5.8 kmh 3.6 mph5.8 kmh 30.10 in1019.3 mb 0.00 in0.0 mm 0.00 in0.0 mm 0.04 in1.0 mm
11:58 AM 44.6°F7.0°C 40.3°F4.6°C 68% 6.4 mph NNE10.3 kmh NNE 6.4 mph10.3 kmh 30.10 in1019.3 mb 0.00 in0.0 mm 0.00 in0.0 mm 0.04 in1.0 mm
12:01 PM 44.8°F7.1°C 41.8°F5.4°C 72% 5.8 mph NNE9.3 kmh NNE 5.8 mph9.3 kmh 30.10 in1019.3 mb 0.00 in0.0 mm 0.00 in0.0 mm 0.04 in1.0 mm
12:04 PM 44.5°F6.9°C 42.5°F5.8°C 73% 4.4 mph NNW7.1 kmh NNW 4.4 mph7.1 kmh 30.10 in1019.3 mb 0.00 in0.0 mm 0.00 in0.0 mm 0.04 in1.0 mm
12:07 PM 45.2°F7.3°C 42.8°F6.0°C 74% 3.2 mph NNW5.1 kmh NNW 3.3 mph5.3 kmh 30.10 in1019.3 mb 0.00 in0.0 mm 0.00 in0.0 mm 0.04 in1.0 mm
12:10 PM 44.7°F7.1°C 41.2°F5.1°C 69% 5.3 mph 8.5 kmh 5.3 mph8.5 kmh 30.10 in1019.3 mb 0.00 in0.0 mm 0.00 in0.0 mm 0.04 in1.0 mm
12:13 PM 44.3°F6.8°C 40.3°F4.6°C 67% 9.1 mph NNW14.6 kmh NNW 9.2 mph14.8 kmh 30.10 in1019.3 mb 0.00 in0.0 mm 0.00 in0.0 mm 0.04 in1.0 mm
12:16 PM 44.2°F6.8°C 39.2°F4.0°C 65% 8.1 mph 13.0 kmh 8.1 mph13.0 kmh 30.11 in1019.6 mb 0.00 in0.0 mm 0.00 in0.0 mm 0.04 in1.0 mm
12:19 PM 44.3°F6.8°C 38.9°F3.8°C 65% 5.9 mph NNW9.5 kmh NNW 6.0 mph9.7 kmh 30.10 in1019.3 mb 0.00 in0.0 mm 0.00 in0.0 mm 0.04 in1.0 mm
12:22 PM 44.3°F6.8°C 38.2°F3.4°C 63% 7.3 mph 11.7 kmh 7.3 mph11.7 kmh 30.10 in1019.3 mb 0.00 in0.0 mm 0.00 in0.0 mm 0.04 in1.0 mm
12:25 PM 44.9°F7.2°C 39.0°F3.9°C 65% 6.5 mph 10.5 kmh 6.5 mph10.5 kmh 30.11 in1019.6 mb 0.00 in0.0 mm 0.00 in0.0 mm 0.04 in1.0 mm
12:28 PM 45.4°F7.4°C 38.7°F3.7°C 64% 5.3 mph NNW8.5 kmh NNW 5.3 mph8.5 kmh 30.10 in1019.3 mb 0.00 in0.0 mm 0.00 in0.0 mm 0.04 in1.0 mm
12:31 PM 45.3°F7.4°C 39.0°F3.9°C 64% 5.3 mph 8.5 kmh 5.3 mph8.5 kmh 30.10 in1019.3 mb 0.00 in0.0 mm 0.00 in0.0 mm 0.04 in1.0 mm
12:34 PM 45.6°F7.6°C 39.6°F4.2°C 64% 3.2 mph NNW5.1 kmh NNW 3.3 mph5.3 kmh 30.10 in1019.3 mb 0.00 in0.0 mm 0.00 in0.0 mm 0.04 in1.0 mm
12:37 PM 46.0°F7.8°C 39.3°F4.1°C 64% 7.1 mph NNW11.4 kmh NNW 7.1 mph11.4 kmh 30.10 in1019.3 mb 0.00 in0.0 mm 0.00 in0.0 mm 0.04 in1.0 mm
12:40 PM 45.6°F7.6°C 39.9°F4.4°C 65% 6.1 mph NNE9.8 kmh NNE 6.1 mph9.8 kmh 30.10 in1019.3 mb 0.00 in0.0 mm 0.00 in0.0 mm 0.04 in1.0 mm
12:43 PM 45.5°F7.5°C 40.0°F4.4°C 65% 7.1 mph NE11.4 kmh NE 7.2 mph11.6 kmh 30.11 in1019.6 mb 0.00 in0.0 mm 0.00 in0.0 mm 0.04 in1.0 mm
12:46 PM 45.1°F7.3°C 39.8°F4.3°C 65% 5.6 mph 9.0 kmh 5.7 mph9.2 kmh 30.11 in1019.6 mb 0.00 in0.0 mm 0.00 in0.0 mm 0.04 in1.0 mm
12:49 PM 45.1°F7.3°C 41.0°F5.0°C 68% 7.1 mph NNW11.4 kmh NNW 7.1 mph11.4 kmh 30.11 in1019.6 mb 0.00 in0.0 mm 0.00 in0.0 mm 0.04 in1.0 mm
12:52 PM 44.8°F7.1°C 40.7°F4.8°C 68% 8.7 mph NW14.0 kmh NW 8.7 mph14.0 kmh 30.11 in1019.6 mb 0.00 in0.0 mm 0.00 in0.0 mm 0.04 in1.0 mm
12:55 PM 44.7°F7.1°C 39.4°F4.1°C 66% 10.9 mph NNW17.5 kmh NNW 11.0 mph17.7 kmh 30.11 in1019.6 mb 0.00 in0.0 mm 0.00 in0.0 mm 0.04 in1.0 mm
12:58 PM 44.9°F7.2°C 39.8°F4.3°C 66% 2.8 mph NNW4.5 kmh NNW 2.8 mph4.5 kmh 30.11 in1019.6 mb 0.00 in0.0 mm 0.00 in0.0 mm 0.04 in1.0 mm
01:01 PM 45.4°F7.4°C 40.4°F4.7°C 68% 6.8 mph NNE10.9 kmh NNE 6.8 mph10.9 kmh 30.11 in1019.6 mb 0.00 in0.0 mm 0.00 in0.0 mm 0.04 in1.0 mm
01:04 PM 44.5°F6.9°C 39.8°F4.3°C 66% 4.8 mph NNW7.7 kmh NNW 4.9 mph7.9 kmh 30.11 in1019.6 mb 0.00 in0.0 mm 0.00 in0.0 mm 0.04 in1.0 mm
01:07 PM 44.8°F7.1°C 40.1°F4.5°C 67% 8.4 mph NNW13.5 kmh NNW 8.6 mph13.8 kmh 30.11 in1019.6 mb 0.00 in0.0 mm 0.00 in0.0 mm 0.04 in1.0 mm
01:10 PM 45.2°F7.3°C 41.0°F5.0°C 68% Calm Calm -- 30.11 in1019.6 mb 0.00 in0.0 mm 0.00 in0.0 mm 0.04 in1.0 mm
01:13 PM 45.2°F7.3°C 40.5°F4.7°C 67% 2.8 mph NNW4.5 kmh NNW 2.8 mph4.5 kmh 30.11 in1019.6 mb 0.00 in0.0 mm 0.00 in0.0 mm 0.04 in1.0 mm
01:16 PM 45.6°F7.6°C 40.6°F4.8°C 66% 7.6 mph NE12.2 kmh NE 7.7 mph12.4 kmh 30.11 in1019.6 mb 0.00 in0.0 mm 0.00 in0.0 mm 0.04 in1.0 mm
01:19 PM 45.2°F7.3°C 40.8°F4.9°C 67% 5.7 mph NE9.2 kmh NE 5.7 mph9.2 kmh 30.11 in1019.6 mb 0.00 in0.0 mm 0.00 in0.0 mm 0.04 in1.0 mm
01:22 PM 44.8°F7.1°C 40.9°F4.9°C 67% Calm Calm -- 30.10 in1019.3 mb 0.00 in0.0 mm 0.00 in0.0 mm 0.04 in1.0 mm
01:25 PM 44.9°F7.2°C 40.4°F4.7°C 65% 10.5 mph 16.9 kmh 10.6 mph17.1 kmh 30.11 in1019.6 mb 0.00 in0.0 mm 0.00 in0.0 mm 0.04 in1.0 mm
01:28 PM 45.5°F7.5°C 40.4°F4.7°C 66% 6.4 mph NW10.3 kmh NW 6.4 mph10.3 kmh 30.11 in1019.6 mb 0.00 in0.0 mm 0.00 in0.0 mm 0.04 in1.0 mm
01:31 PM 45.7°F7.6°C 40.7°F4.8°C 67% 6.7 mph WNW10.8 kmh WNW 6.8 mph10.9 kmh 30.11 in1019.6 mb 0.00 in0.0 mm 0.00 in0.0 mm 0.04 in1.0 mm
01:34 PM 45.8°F7.7°C 40.3°F4.6°C 65% 7.9 mph NW12.7 kmh NW 8.0 mph12.9 kmh 30.11 in1019.6 mb 0.00 in0.0 mm 0.00 in0.0 mm 0.04 in1.0 mm
01:37 PM 45.2°F7.3°C 40.9°F4.9°C 68% 6.9 mph NNW11.1 kmh NNW 6.9 mph11.1 kmh 30.11 in1019.6 mb 0.00 in0.0 mm 0.00 in0.0 mm 0.04 in1.0 mm
01:40 PM 44.9°F7.2°C 41.3°F5.2°C 68% Calm Calm -- 30.12 in1020.0 mb 0.00 in0.0 mm 0.00 in0.0 mm 0.04 in1.0 mm
01:43 PM 45.7°F7.6°C 39.3°F4.1°C 63% 5.2 mph NNE8.4 kmh NNE 5.3 mph8.5 kmh 30.11 in1019.6 mb 0.00 in0.0 mm 0.00 in0.0 mm 0.04 in1.0 mm
01:46 PM 46.2°F7.9°C 40.2°F4.6°C 64% 4.9 mph NNE7.9 kmh NNE 4.9 mph7.9 kmh 30.11 in1019.6 mb 0.00 in0.0 mm 0.00 in0.0 mm 0.04 in1.0 mm
01:49 PM 46.0°F7.8°C 40.4°F4.7°C 64% 4.2 mph NNW6.8 kmh NNW 4.2 mph6.8 kmh 30.11 in1019.6 mb 0.00 in0.0 mm 0.00 in0.0 mm 0.04 in1.0 mm
01:52 PM 45.8°F7.7°C 39.4°F4.1°C 62% 5.7 mph NW9.2 kmh NW 5.7 mph9.2 kmh 30.12 in1020.0 mb 0.00 in0.0 mm 0.00 in0.0 mm 0.04 in1.0 mm
01:55 PM 45.6°F7.6°C 39.5°F4.2°C 62% 3.2 mph WNW5.1 kmh WNW 3.2 mph5.1 kmh 30.11 in1019.6 mb 0.00 in0.0 mm 0.00 in0.0 mm 0.04 in1.0 mm
02:01 PM 46.6°F8.1°C 39.7°F4.3°C 62% 4.8 mph NE7.7 kmh NE 4.9 mph7.9 kmh 30.11 in1019.6 mb 0.00 in0.0 mm 0.00 in0.0 mm 0.04 in1.0 mm
02:04 PM 46.3°F7.9°C 38.5°F3.6°C 59% 3.2 mph NNW5.1 kmh NNW 3.2 mph5.1 kmh 30.11 in1019.6 mb 0.00 in0.0 mm 0.00 in0.0 mm 0.04 in1.0 mm
02:07 PM 46.6°F8.1°C 38.2°F3.4°C 59% 4.2 mph NNW6.8 kmh NNW 4.2 mph6.8 kmh 30.11 in1019.6 mb 0.00 in0.0 mm 0.00 in0.0 mm 0.04 in1.0 mm
02:10 PM 47.2°F8.4°C 38.9°F3.8°C 60% 5.2 mph 8.4 kmh 5.3 mph8.5 kmh 30.11 in1019.6 mb 0.00 in0.0 mm 0.00 in0.0 mm 0.04 in1.0 mm
02:13 PM 47.4°F8.6°C 38.9°F3.8°C 60% 8.1 mph NNW13.0 kmh NNW 8.2 mph13.2 kmh 30.11 in1019.6 mb 0.00 in0.0 mm 0.00 in0.0 mm 0.04 in1.0 mm
02:16 PM 46.6°F8.1°C 39.1°F3.9°C 60% 5.0 mph NNW8.0 kmh NNW 5.0 mph8.0 kmh 30.11 in1019.6 mb 0.00 in0.0 mm 0.00 in0.0 mm 0.04 in1.0 mm
02:19 PM 46.7°F8.2°C 39.1°F3.9°C 60% 2.8 mph NNW4.5 kmh NNW 2.8 mph4.5 kmh 30.11 in1019.6 mb 0.00 in0.0 mm 0.00 in0.0 mm 0.04 in1.0 mm
02:22 PM 46.5°F8.1°C 39.3°F4.1°C 60% 7.3 mph 11.7 kmh 7.3 mph11.7 kmh 30.11 in1019.6 mb 0.00 in0.0 mm 0.00 in0.0 mm 0.04 in1.0 mm
02:25 PM 46.3°F7.9°C 39.5°F4.2°C 61% 7.3 mph NW11.7 kmh NW 7.3 mph11.7 kmh 30.11 in1019.6 mb 0.00 in0.0 mm 0.00 in0.0 mm 0.04 in1.0 mm
02:28 PM 46.2°F7.9°C 39.8°F4.3°C 62% 6.5 mph NNW10.5 kmh NNW 6.5 mph10.5 kmh 30.12 in1020.0 mb 0.00 in0.0 mm 0.00 in0.0 mm 0.04 in1.0 mm
02:31 PM 46.4°F8.0°C 40.3°F4.6°C 64% 4.4 mph NNW7.1 kmh NNW 4.5 mph7.2 kmh 30.12 in1020.0 mb 0.00 in0.0 mm 0.00 in0.0 mm 0.04 in1.0 mm
02:34 PM 46.3°F7.9°C 40.9°F4.9°C 65% 3.2 mph NNW5.1 kmh NNW 3.2 mph5.1 kmh 30.12 in1020.0 mb 0.00 in0.0 mm 0.00 in0.0 mm 0.04 in1.0 mm
02:37 PM 46.1°F7.8°C 41.4°F5.2°C 67% 6.8 mph NW10.9 kmh NW 6.9 mph11.1 kmh 30.12 in1020.0 mb 0.00 in0.0 mm 0.00 in0.0 mm 0.04 in1.0 mm
02:40 PM 45.7°F7.6°C 41.4°F5.2°C 67% 7.3 mph NNW11.7 kmh NNW 7.3 mph11.7 kmh 30.12 in1020.0 mb 0.00 in0.0 mm 0.00 in0.0 mm 0.04 in1.0 mm
02:43 PM 45.6°F7.6°C 41.5°F5.3°C 68% 7.5 mph NNW12.1 kmh NNW 7.6 mph12.2 kmh 30.13 in1020.3 mb 0.00 in0.0 mm 0.00 in0.0 mm 0.04 in1.0 mm
02:46 PM 45.8°F7.7°C 41.8°F5.4°C 68% 6.5 mph NNW10.5 kmh NNW 6.5 mph10.5 kmh 30.13 in1020.3 mb 0.00 in0.0 mm 0.00 in0.0 mm 0.04 in1.0 mm
02:49 PM 45.5°F7.5°C 41.8°F5.4°C 68% 3.6 mph NNW5.8 kmh NNW 3.6 mph5.8 kmh 30.13 in1020.3 mb 0.00 in0.0 mm 0.00 in0.0 mm 0.04 in1.0 mm
02:52 PM 45.4°F7.4°C 41.6°F5.3°C 68% 4.6 mph NW7.4 kmh NW 4.6 mph7.4 kmh 30.13 in1020.3 mb 0.00 in0.0 mm 0.00 in0.0 mm 0.04 in1.0 mm
02:55 PM 44.9°F7.2°C 41.8°F5.4°C 69% 9.5 mph W15.3 kmh W 9.6 mph15.4 kmh 30.13 in1020.3 mb 0.00 in0.0 mm 0.00 in0.0 mm 0.04 in1.0 mm
03:01 PM 44.7°F7.1°C 42.0°F5.6°C 69% 3.0 mph NW4.8 kmh NW 3.2 mph5.1 kmh 30.13 in1020.3 mb 0.00 in0.0 mm 0.00 in0.0 mm 0.04 in1.0 mm
03:04 PM 44.8°F7.1°C 41.7°F5.4°C 69% 5.2 mph NW8.4 kmh NW 5.3 mph8.5 kmh 30.13 in1020.3 mb 0.00 in0.0 mm 0.00 in0.0 mm 0.04 in1.0 mm
03:07 PM 44.7°F7.1°C 41.8°F5.4°C 69% 2.4 mph NW3.9 kmh NW 2.4 mph3.9 kmh 30.13 in1020.3 mb 0.00 in0.0 mm 0.00 in0.0 mm 0.04 in1.0 mm
03:10 PM 44.3°F6.8°C 42.0°F5.6°C 70% 5.0 mph NNW8.0 kmh NNW 5.3 mph8.5 kmh 30.13 in1020.3 mb 0.00 in0.0 mm 0.00 in0.0 mm 0.04 in1.0 mm
03:13 PM 44.3°F6.8°C 41.7°F5.4°C 69% 4.0 mph NNW6.4 kmh NNW 4.0 mph6.4 kmh 30.14 in1020.7 mb 0.00 in0.0 mm 0.00 in0.0 mm 0.04 in1.0 mm
03:16 PM 44.3°F6.8°C 41.7°F5.4°C 69% 4.9 mph NNW7.9 kmh NNW 4.9 mph7.9 kmh 30.13 in1020.3 mb 0.00 in0.0 mm 0.00 in0.0 mm 0.04 in1.0 mm
03:19 PM 44.4°F6.9°C 41.9°F5.5°C 70% 4.6 mph 7.4 kmh 4.7 mph7.6 kmh 30.14 in1020.7 mb 0.00 in0.0 mm 0.00 in0.0 mm 0.04 in1.0 mm
03:22 PM 44.5°F6.9°C 41.8°F5.4°C 69% 5.3 mph WNW8.5 kmh WNW 5.3 mph8.5 kmh 30.13 in1020.3 mb 0.00 in0.0 mm 0.00 in0.0 mm 0.04 in1.0 mm
03:25 PM 44.8°F7.1°C 41.9°F5.5°C 69% 0.8 mph NW1.3 kmh NW 0.8 mph1.3 kmh 30.13 in1020.3 mb 0.00 in0.0 mm 0.00 in0.0 mm 0.04 in1.0 mm
03:28 PM 45.1°F7.3°C 41.9°F5.5°C 69% 3.8 mph NNW6.1 kmh NNW 4.1 mph6.6 kmh 30.13 in1020.3 mb 0.00 in0.0 mm 0.00 in0.0 mm 0.04 in1.0 mm
03:31 PM 45.3°F7.4°C 40.6°F4.8°C 67% 6.0 mph NNW9.7 kmh NNW 6.0 mph9.7 kmh 30.14 in1020.7 mb 0.00 in0.0 mm 0.00 in0.0 mm 0.04 in1.0 mm
03:34 PM 45.5°F7.5°C 39.4°F4.1°C 64% 9.2 mph NNE14.8 kmh NNE 9.2 mph14.8 kmh 30.14 in1020.7 mb 0.00 in0.0 mm 0.00 in0.0 mm 0.04 in1.0 mm
03:37 PM 45.3°F7.4°C 39.4°F4.1°C 65% 8.7 mph NE14.0 kmh NE 8.7 mph14.0 kmh 30.14 in1020.7 mb 0.00 in0.0 mm 0.00 in0.0 mm 0.04 in1.0 mm
03:40 PM 45.4°F7.4°C 39.8°F4.3°C 65% 2.4 mph NW3.9 kmh NW 2.4 mph3.9 kmh 30.14 in1020.7 mb 0.00 in0.0 mm 0.00 in0.0 mm 0.04 in1.0 mm
03:43 PM 45.2°F7.3°C 40.3°F4.6°C 65% 4.0 mph NW6.4 kmh NW 4.1 mph6.6 kmh 30.14 in1020.7 mb 0.00 in0.0 mm 0.00 in0.0 mm 0.04 in1.0 mm
03:46 PM 44.8°F7.1°C 40.9°F4.9°C 67% 2.7 mph NW4.3 kmh NW 2.9 mph4.7 kmh 30.14 in1020.7 mb 0.00 in0.0 mm 0.00 in0.0 mm 0.04 in1.0 mm
03:49 PM 44.7°F7.1°C 40.9°F4.9°C 67% 2.8 mph WNW4.5 kmh WNW 2.9 mph4.7 kmh 30.14 in1020.7 mb 0.00 in0.0 mm 0.00 in0.0 mm 0.04 in1.0 mm
03:52 PM 44.4°F6.9°C 41.3°F5.2°C 67% 4.0 mph W6.4 kmh W 4.1 mph6.6 kmh 30.14 in1020.7 mb 0.00 in0.0 mm 0.00 in0.0 mm 0.04 in1.0 mm
03:55 PM 44.2°F6.8°C 41.1°F5.1°C 67% 3.0 mph NNW4.8 kmh NNW 3.2 mph5.1 kmh 30.14 in1020.7 mb 0.00 in0.0 mm 0.00 in0.0 mm 0.04 in1.0 mm
03:58 PM 43.9°F6.6°C 40.9°F4.9°C 67% 2.4 mph NW3.9 kmh NW 2.4 mph3.9 kmh 30.14 in1020.7 mb 0.00 in0.0 mm 0.00 in0.0 mm 0.04 in1.0 mm
04:01 PM 43.9°F6.6°C 40.7°F4.8°C 67% 2.0 mph W3.2 kmh W 2.0 mph3.2 kmh 30.14 in1020.7 mb 0.00 in0.0 mm 0.00 in0.0 mm 0.04 in1.0 mm
04:04 PM 44.0°F6.7°C 41.1°F5.1°C 67% 2.8 mph NW4.5 kmh NW 2.8 mph4.5 kmh 30.14 in1020.7 mb 0.00 in0.0 mm 0.00 in0.0 mm 0.04 in1.0 mm
04:07 PM 44.2°F6.8°C 40.9°F4.9°C 68% 2.0 mph NW3.2 kmh NW 2.0 mph3.2 kmh 30.14 in1020.7 mb 0.00 in0.0 mm 0.00 in0.0 mm 0.04 in1.0 mm
04:10 PM 44.2°F6.8°C 40.9°F4.9°C 68% 1.5 mph NW2.4 kmh NW 1.6 mph2.6 kmh 30.14 in1020.7 mb 0.00 in0.0 mm 0.00 in0.0 mm 0.04 in1.0 mm
04:13 PM 44.2°F6.8°C 41.2°F5.1°C 69% 1.2 mph NW1.9 kmh NW 1.2 mph1.9 kmh 30.14 in1020.7 mb 0.00 in0.0 mm 0.00 in0.0 mm 0.04 in1.0 mm
04:16 PM 44.0°F6.7°C 41.1°F5.1°C 68% 3.2 mph W5.1 kmh W 3.3 mph5.3 kmh 30.14 in1020.7 mb 0.00 in0.0 mm 0.00 in0.0 mm 0.04 in1.0 mm
04:19 PM 43.6°F6.4°C 41.1°F5.1°C 69% 2.8 mph 4.5 kmh 2.8 mph4.5 kmh 30.14 in1020.7 mb 0.00 in0.0 mm 0.00 in0.0 mm 0.04 in1.0 mm
04:22 PM 43.4°F6.3°C 41.0°F5.0°C 68% 4.9 mph NNW7.9 kmh NNW 4.9 mph7.9 kmh 30.14 in1020.7 mb 0.00 in0.0 mm 0.00 in0.0 mm 0.04 in1.0 mm
04:25 PM 43.1°F6.2°C 40.9°F4.9°C 68% 2.4 mph NW3.9 kmh NW 2.4 mph3.9 kmh 30.14 in1020.7 mb 0.00 in0.0 mm 0.00 in0.0 mm 0.04 in1.0 mm
04:28 PM 43.0°F6.1°C 41.1°F5.1°C 69% 2.0 mph NW3.2 kmh NW 2.0 mph3.2 kmh 30.15 in1021.0 mb 0.00 in0.0 mm 0.00 in0.0 mm 0.04 in1.0 mm
04:31 PM 43.1°F6.2°C 41.0°F5.0°C 69% 2.0 mph NNW3.2 kmh NNW 2.0 mph3.2 kmh 30.15 in1021.0 mb 0.00 in0.0 mm 0.00 in0.0 mm 0.04 in1.0 mm
04:34 PM 43.0°F6.1°C 41.0°F5.0°C 69% Calm Calm -- 30.15 in1021.0 mb 0.00 in0.0 mm 0.00 in0.0 mm 0.04 in1.0 mm
04:40 PM 43.0°F6.1°C 41.1°F5.1°C 70% 2.4 mph NW3.9 kmh NW 2.4 mph3.9 kmh 30.15 in1021.0 mb 0.00 in0.0 mm 0.00 in0.0 mm 0.04 in1.0 mm
04:43 PM 43.0°F6.1°C 41.2°F5.1°C 70% Calm Calm -- 30.14 in1020.7 mb 0.00 in0.0 mm 0.00 in0.0 mm 0.04 in1.0 mm
04:46 PM 43.0°F6.1°C 41.3°F5.2°C 70% 2.0 mph NNW3.2 kmh NNW 2.0 mph3.2 kmh 30.15 in1021.0 mb 0.00 in0.0 mm 0.00 in0.0 mm 0.04 in1.0 mm
04:49 PM 43.1°F6.2°C 41.1°F5.1°C 71% 3.2 mph NNW5.1 kmh NNW 3.2 mph5.1 kmh 30.15 in1021.0 mb 0.00 in0.0 mm 0.00 in0.0 mm 0.04 in1.0 mm
04:52 PM 43.1°F6.2°C 41.6°F5.3°C 71% 0.8 mph NNW1.3 kmh NNW 0.8 mph1.3 kmh 30.15 in1021.0 mb 0.00 in0.0 mm 0.00 in0.0 mm 0.04 in1.0 mm
04:55 PM 42.9°F6.1°C 41.3°F5.2°C 71% Calm Calm -- 30.15 in1021.0 mb 0.00 in0.0 mm 0.00 in0.0 mm 0.04 in1.0 mm
04:58 PM 43.0°F6.1°C 41.4°F5.2°C 71% 0.4 mph NW0.6 kmh NW 0.4 mph0.6 kmh 30.15 in1021.0 mb 0.00 in0.0 mm 0.00 in0.0 mm 0.04 in1.0 mm
05:04 PM 42.9°F6.1°C 41.3°F5.2°C 71% 3.6 mph 5.8 kmh 3.6 mph5.8 kmh 30.15 in1021.0 mb 0.00 in0.0 mm 0.00 in0.0 mm 0.04 in1.0 mm
05:07 PM 43.0°F6.1°C 41.2°F5.1°C 71% 4.8 mph 7.7 kmh 4.9 mph7.9 kmh 30.16 in1021.3 mb 0.00 in0.0 mm 0.00 in0.0 mm 0.04 in1.0 mm
05:10 PM 43.0°F6.1°C 41.1°F5.1°C 72% 4.0 mph NNW6.4 kmh NNW 4.1 mph6.6 kmh 30.16 in1021.3 mb 0.00 in0.0 mm 0.00 in0.0 mm 0.04 in1.0 mm
05:13 PM 42.7°F5.9°C 41.8°F5.4°C 73% 4.0 mph NW6.4 kmh NW 4.1 mph6.6 kmh 30.16 in1021.3 mb 0.00 in0.0 mm 0.00 in0.0 mm 0.04 in1.0 mm
05:16 PM 42.2°F5.7°C 41.7°F5.4°C 73% 4.0 mph NNW6.4 kmh NNW 4.1 mph6.6 kmh 30.16 in1021.3 mb 0.00 in0.0 mm 0.00 in0.0 mm 0.04 in1.0 mm
05:19 PM 42.0°F5.6°C 41.4°F5.2°C 73% 4.9 mph NW7.9 kmh NW 4.9 mph7.9 kmh 30.16 in1021.3 mb 0.00 in0.0 mm 0.00 in0.0 mm 0.04 in1.0 mm
05:22 PM 41.9°F5.5°C 41.3°F5.2°C 73% 2.8 mph 4.5 kmh 2.9 mph4.7 kmh 30.17 in1021.7 mb 0.00 in0.0 mm 0.00 in0.0 mm 0.04 in1.0 mm
05:25 PM 41.3°F5.2°C 41.4°F5.2°C 73% Calm Calm -- 30.17 in1021.7 mb 0.00 in0.0 mm 0.00 in0.0 mm 0.04 in1.0 mm
05:28 PM 41.3°F5.2°C 41.2°F5.1°C 73% 3.2 mph NNW5.1 kmh NNW 3.3 mph5.3 kmh 30.17 in1021.7 mb 0.00 in0.0 mm 0.00 in0.0 mm 0.04 in1.0 mm
05:31 PM 41.1°F5.1°C 41.3°F5.2°C 73% 2.0 mph NNW3.2 kmh NNW 2.0 mph3.2 kmh 30.17 in1021.7 mb 0.00 in0.0 mm 0.00 in0.0 mm 0.04 in1.0 mm
05:34 PM 40.7°F4.8°C 41.4°F5.2°C 74% 1.6 mph NNW2.6 kmh NNW 1.6 mph2.6 kmh 30.18 in1022.0 mb 0.00 in0.0 mm 0.00 in0.0 mm 0.04 in1.0 mm
05:37 PM 40.4°F4.7°C 41.2°F5.1°C 74% Calm Calm -- 30.18 in1022.0 mb 0.00 in0.0 mm 0.00 in0.0 mm 0.04 in1.0 mm
05:40 PM 39.9°F4.4°C 41.0°F5.0°C 74% Calm Calm -- 30.17 in1021.7 mb 0.00 in0.0 mm 0.00 in0.0 mm 0.04 in1.0 mm
05:43 PM 39.7°F4.3°C 41.3°F5.2°C 74% 1.2 mph NW1.9 kmh NW 1.2 mph1.9 kmh 30.17 in1021.7 mb 0.00 in0.0 mm 0.00 in0.0 mm 0.04 in1.0 mm
05:46 PM 39.7°F4.3°C 41.1°F5.1°C 74% 0.8 mph NNW1.3 kmh NNW 0.8 mph1.3 kmh 30.18 in1022.0 mb 0.00 in0.0 mm 0.00 in0.0 mm 0.04 in1.0 mm
05:49 PM 39.5°F4.2°C 40.9°F4.9°C 74% 1.6 mph NNW2.6 kmh NNW 1.6 mph2.6 kmh 30.18 in1022.0 mb 0.00 in0.0 mm 0.00 in0.0 mm 0.04 in1.0 mm
05:52 PM 39.3°F4.1°C 41.0°F5.0°C 74% Calm Calm -- 30.18 in1022.0 mb 0.00 in0.0 mm 0.00 in0.0 mm 0.04 in1.0 mm
05:55 PM 39.1°F3.9°C 40.9°F4.9°C 74% 1.2 mph NNW1.9 kmh NNW 1.2 mph1.9 kmh 30.18 in1022.0 mb 0.00 in0.0 mm 0.00 in0.0 mm 0.04 in1.0 mm
05:58 PM 39.0°F3.9°C 40.9°F4.9°C 74% 1.6 mph NNW2.6 kmh NNW 1.6 mph2.6 kmh 30.18 in1022.0 mb 0.00 in0.0 mm 0.00 in0.0 mm 0.04 in1.0 mm
06:01 PM 38.9°F3.8°C 40.6°F4.8°C 74% 1.2 mph NW1.9 kmh NW 1.2 mph1.9 kmh 30.18 in1022.0 mb 0.00 in0.0 mm 0.00 in0.0 mm 0.04 in1.0 mm
06:04 PM 38.4°F3.6°C 40.6°F4.8°C 74% Calm Calm -- 30.18 in1022.0 mb 0.00 in0.0 mm 0.00 in0.0 mm 0.04 in1.0 mm
06:07 PM 38.0°F3.3°C 40.4°F4.7°C 74% Calm Calm -- 30.18 in1022.0 mb 0.00 in0.0 mm 0.00 in0.0 mm 0.04 in1.0 mm
06:10 PM 37.6°F3.1°C 40.4°F4.7°C 74% Calm Calm -- 30.18 in1022.0 mb 0.00 in0.0 mm 0.00 in0.0 mm 0.04 in1.0 mm
06:13 PM 37.7°F3.2°C 40.0°F4.4°C 74% Calm Calm -- 30.18 in1022.0 mb 0.00 in0.0 mm 0.00 in0.0 mm 0.04 in1.0 mm
06:16 PM 37.7°F3.2°C 40.1°F4.5°C 75% Calm Calm -- 30.18 in1022.0 mb 0.00 in0.0 mm 0.00 in0.0 mm 0.04 in1.0 mm
06:19 PM 37.6°F3.1°C 40.4°F4.7°C 76% Calm Calm -- 30.18 in1022.0 mb 0.00 in0.0 mm 0.00 in0.0 mm 0.04 in1.0 mm
06:22 PM 37.9°F3.3°C 40.3°F4.6°C 76% Calm Calm -- 30.18 in1022.0 mb 0.00 in0.0 mm 0.00 in0.0 mm 0.04 in1.0 mm
06:25 PM 38.1°F3.4°C 40.3°F4.6°C 77% Calm Calm -- 30.18 in1022.0 mb 0.00 in0.0 mm 0.00 in0.0 mm 0.04 in1.0 mm
06:28 PM 38.2°F3.4°C 40.6°F4.8°C 78% Calm Calm -- 30.19 in1022.4 mb 0.00 in0.0 mm 0.00 in0.0 mm 0.04 in1.0 mm
06:31 PM 38.2°F3.4°C 40.9°F4.9°C 78% Calm Calm -- 30.20 in1022.7 mb 0.00 in0.0 mm 0.00 in0.0 mm 0.04 in1.0 mm
06:34 PM 38.3°F3.5°C 40.9°F4.9°C 78% Calm Calm -- 30.20 in1022.7 mb 0.00 in0.0 mm 0.00 in0.0 mm 0.04 in1.0 mm
06:37 PM 38.2°F3.4°C 40.9°F4.9°C 79% Calm Calm -- 30.20 in1022.7 mb 0.00 in0.0 mm 0.00 in0.0 mm 0.04 in1.0 mm
06:40 PM 38.3°F3.5°C 41.0°F5.0°C 79% Calm Calm -- 30.19 in1022.4 mb 0.00 in0.0 mm 0.00 in0.0 mm 0.04 in1.0 mm
06:43 PM 38.4°F3.6°C 41.1°F5.1°C 79% Calm Calm -- 30.19 in1022.4 mb 0.00 in0.0 mm 0.00 in0.0 mm 0.04 in1.0 mm
06:46 PM 38.4°F3.6°C 40.9°F4.9°C 79% Calm Calm -- 30.20 in1022.7 mb 0.00 in0.0 mm 0.00 in0.0 mm 0.04 in1.0 mm
06:52 PM 38.4°F3.6°C 41.4°F5.2°C 80% Calm Calm -- 30.20 in1022.7 mb 0.00 in0.0 mm 0.00 in0.0 mm 0.04 in1.0 mm
06:55 PM 38.2°F3.4°C 41.3°F5.2°C 81% Calm Calm -- 30.20 in1022.7 mb 0.00 in0.0 mm 0.00 in0.0 mm 0.04 in1.0 mm
06:58 PM 38.0°F3.3°C 41.5°F5.3°C 81% Calm Calm -- 30.20 in1022.7 mb 0.00 in0.0 mm 0.00 in0.0 mm 0.04 in1.0 mm
07:01 PM 37.9°F3.3°C 41.6°F5.3°C 82% Calm Calm -- 30.20 in1022.7 mb 0.00 in0.0 mm 0.00 in0.0 mm 0.04 in1.0 mm
07:04 PM 37.6°F3.1°C 41.7°F5.4°C 82% Calm Calm -- 30.20 in1022.7 mb 0.00 in0.0 mm 0.00 in0.0 mm 0.04 in1.0 mm
07:10 PM 36.8°F2.7°C 41.1°F5.1°C 81% Calm Calm -- 30.20 in1022.7 mb 0.00 in0.0 mm 0.00 in0.0 mm 0.04 in1.0 mm
07:13 PM 36.7°F2.6°C 41.0°F5.0°C 81% Calm Calm -- 30.20 in1022.7 mb 0.00 in0.0 mm 0.00 in0.0 mm 0.04 in1.0 mm
07:16 PM 37.0°F2.8°C 41.0°F5.0°C 81% Calm Calm -- 30.20 in1022.7 mb 0.00 in0.0 mm 0.00 in0.0 mm 0.04 in1.0 mm
07:19 PM 37.1°F2.8°C 40.9°F4.9°C 81% Calm Calm -- 30.20 in1022.7 mb 0.00 in0.0 mm 0.00 in0.0 mm 0.04 in1.0 mm
07:22 PM 37.3°F2.9°C 40.8°F4.9°C 81% Calm Calm -- 30.20 in1022.7 mb 0.00 in0.0 mm 0.00 in0.0 mm 0.04 in1.0 mm
07:25 PM 37.3°F2.9°C 40.7°F4.8°C 81% Calm Calm -- 30.20 in1022.7 mb 0.00 in0.0 mm 0.00 in0.0 mm 0.04 in1.0 mm
07:28 PM 37.3°F2.9°C 40.8°F4.9°C 81% Calm Calm -- 30.20 in1022.7 mb 0.00 in0.0 mm 0.00 in0.0 mm 0.04 in1.0 mm
07:31 PM 37.2°F2.9°C 40.7°F4.8°C 81% Calm Calm -- 30.20 in1022.7 mb 0.00 in0.0 mm 0.00 in0.0 mm 0.04 in1.0 mm
07:34 PM 37.2°F2.9°C 41.0°F5.0°C 82% Calm Calm -- 30.20 in1022.7 mb 0.00 in0.0 mm 0.00 in0.0 mm 0.04 in1.0 mm
07:37 PM 36.8°F2.7°C 41.0°F5.0°C 82% Calm Calm -- 30.20 in1022.7 mb 0.00 in0.0 mm 0.00 in0.0 mm 0.04 in1.0 mm
07:40 PM 36.7°F2.6°C 41.2°F5.1°C 82% Calm Calm -- 30.21 in1023.0 mb 0.00 in0.0 mm 0.00 in0.0 mm 0.04 in1.0 mm
07:43 PM 36.4°F2.4°C 40.8°F4.9°C 82% Calm Calm -- 30.20 in1022.7 mb 0.00 in0.0 mm 0.00 in0.0 mm 0.04 in1.0 mm
07:46 PM 36.3°F2.4°C 40.8°F4.9°C 82% Calm Calm -- 30.20 in1022.7 mb 0.00 in0.0 mm 0.00 in0.0 mm 0.04 in1.0 mm
07:49 PM 36.1°F2.3°C 40.5°F4.7°C 82% Calm Calm -- 30.20 in1022.7 mb 0.00 in0.0 mm 0.00 in0.0 mm 0.04 in1.0 mm
07:52 PM 36.1°F2.3°C 40.5°F4.7°C 82% Calm Calm -- 30.21 in1023.0 mb 0.00 in0.0 mm 0.00 in0.0 mm 0.04 in1.0 mm
07:55 PM 35.7°F2.1°C 40.5°F4.7°C 81% Calm Calm -- 30.21 in1023.0 mb 0.00 in0.0 mm 0.00 in0.0 mm 0.04 in1.0 mm
07:58 PM 35.5°F1.9°C 40.4°F4.7°C 81% Calm Calm -- 30.21 in1023.0 mb 0.00 in0.0 mm 0.00 in0.0 mm 0.04 in1.0 mm
08:01 PM 35.4°F1.9°C 40.0°F4.4°C 81% Calm Calm -- 30.21 in1023.0 mb 0.00 in0.0 mm 0.00 in0.0 mm 0.04 in1.0 mm
08:04 PM 35.5°F1.9°C 39.8°F4.3°C 81% Calm Calm -- 30.21 in1023.0 mb 0.00 in0.0 mm 0.00 in0.0 mm 0.04 in1.0 mm
08:07 PM 35.7°F2.1°C 39.7°F4.3°C 82% Calm Calm -- 30.21 in1023.0 mb 0.00 in0.0 mm 0.00 in0.0 mm 0.04 in1.0 mm
08:10 PM 35.7°F2.1°C 40.0°F4.4°C 82% Calm Calm -- 30.21 in1023.0 mb 0.00 in0.0 mm 0.00 in0.0 mm 0.04 in1.0 mm
08:13 PM 35.8°F2.1°C 40.0°F4.4°C 82% Calm Calm -- 30.21 in1023.0 mb 0.00 in0.0 mm 0.00 in0.0 mm 0.04 in1.0 mm
08:16 PM 35.7°F2.1°C 39.9°F4.4°C 83% Calm Calm -- 30.21 in1023.0 mb 0.00 in0.0 mm 0.00 in0.0 mm 0.04 in1.0 mm
08:19 PM 35.8°F2.1°C 40.0°F4.4°C 83% Calm Calm -- 30.21 in1023.0 mb 0.00 in0.0 mm 0.00 in0.0 mm 0.04 in1.0 mm
08:22 PM 35.7°F2.1°C 40.0°F4.4°C 83% Calm Calm -- 30.21 in1023.0 mb 0.00 in0.0 mm 0.00 in0.0 mm 0.04 in1.0 mm
08:25 PM 35.9°F2.2°C 40.0°F4.4°C 83% Calm Calm -- 30.21 in1023.0 mb 0.00 in0.0 mm 0.00 in0.0 mm 0.04 in1.0 mm
08:28 PM 35.9°F2.2°C 39.8°F4.3°C 83% Calm Calm -- 30.21 in1023.0 mb 0.00 in0.0 mm 0.00 in0.0 mm 0.04 in1.0 mm
08:31 PM 36.2°F2.3°C 40.1°F4.5°C 84% Calm Calm -- 30.21 in1023.0 mb 0.00 in0.0 mm 0.00 in0.0 mm 0.04 in1.0 mm
08:34 PM 36.4°F2.4°C 40.3°F4.6°C 84% Calm Calm -- 30.21 in1023.0 mb 0.00 in0.0 mm 0.00 in0.0 mm 0.04 in1.0 mm
08:37 PM 36.5°F2.5°C 40.3°F4.6°C 84% Calm Calm -- 30.21 in1023.0 mb 0.00 in0.0 mm 0.00 in0.0 mm 0.04 in1.0 mm
08:40 PM 36.6°F2.6°C 40.3°F4.6°C 84% Calm Calm -- 30.21 in1023.0 mb 0.00 in0.0 mm 0.00 in0.0 mm 0.04 in1.0 mm
08:43 PM 36.8°F2.7°C 40.7°F4.8°C 85% Calm Calm -- 30.21 in1023.0 mb 0.00 in0.0 mm 0.00 in0.0 mm 0.04 in1.0 mm
08:46 PM 36.7°F2.6°C 40.7°F4.8°C 85% Calm Calm -- 30.21 in1023.0 mb 0.00 in0.0 mm 0.00 in0.0 mm 0.04 in1.0 mm
08:49 PM 36.8°F2.7°C 40.5°F4.7°C 85% Calm Calm -- 30.21 in1023.0 mb 0.00 in0.0 mm 0.00 in0.0 mm 0.04 in1.0 mm
08:52 PM 36.8°F2.7°C 40.5°F4.7°C 84% Calm Calm -- 30.22 in1023.4 mb 0.00 in0.0 mm 0.00 in0.0 mm 0.04 in1.0 mm
08:55 PM 37.0°F2.8°C 40.7°F4.8°C 85% Calm Calm -- 30.22 in1023.4 mb 0.00 in0.0 mm 0.00 in0.0 mm 0.04 in1.0 mm
08:58 PM 37.0°F2.8°C 40.7°F4.8°C 85% Calm Calm -- 30.22 in1023.4 mb 0.00 in0.0 mm 0.00 in0.0 mm 0.04 in1.0 mm
09:01 PM 37.0°F2.8°C 40.7°F4.8°C 85% Calm Calm -- 30.22 in1023.4 mb 0.00 in0.0 mm 0.00 in0.0 mm 0.04 in1.0 mm
09:04 PM 37.2°F2.9°C 40.5°F4.7°C 85% Calm Calm -- 30.22 in1023.4 mb 0.00 in0.0 mm 0.00 in0.0 mm 0.04 in1.0 mm
09:10 PM 37.1°F2.8°C 41.0°F5.0°C 86% Calm Calm -- 30.22 in1023.4 mb 0.00 in0.0 mm 0.00 in0.0 mm 0.04 in1.0 mm
09:13 PM 37.2°F2.9°C 41.1°F5.1°C 86% Calm Calm -- 30.22 in1023.4 mb 0.00 in0.0 mm 0.00 in0.0 mm 0.04 in1.0 mm
09:16 PM 37.1°F2.8°C 41.0°F5.0°C 86% Calm Calm -- 30.23 in1023.7 mb 0.00 in0.0 mm 0.00 in0.0 mm 0.04 in1.0 mm
09:19 PM 37.1°F2.8°C 41.2°F5.1°C 86% Calm Calm -- 30.23 in1023.7 mb 0.00 in0.0 mm 0.00 in0.0 mm 0.04 in1.0 mm
09:22 PM 37.2°F2.9°C 41.3°F5.2°C 86% Calm Calm -- 30.23 in1023.7 mb 0.00 in0.0 mm 0.00 in0.0 mm 0.04 in1.0 mm
09:25 PM 37.2°F2.9°C 41.1°F5.1°C 86% Calm Calm -- 30.22 in1023.4 mb 0.00 in0.0 mm 0.00 in0.0 mm 0.04 in1.0 mm
09:28 PM 37.3°F2.9°C 41.0°F5.0°C 85% Calm Calm -- 30.23 in1023.7 mb 0.00 in0.0 mm 0.00 in0.0 mm 0.04 in1.0 mm
09:31 PM 37.4°F3.0°C 41.2°F5.1°C 86% Calm Calm -- 30.23 in1023.7 mb 0.00 in0.0 mm 0.00 in0.0 mm 0.04 in1.0 mm
09:34 PM 37.4°F3.0°C 41.4°F5.2°C 86% Calm Calm -- 30.23 in1023.7 mb 0.00 in0.0 mm 0.00 in0.0 mm 0.04 in1.0 mm
09:37 PM 37.4°F3.0°C 41.4°F5.2°C 87% Calm Calm -- 30.23 in1023.7 mb 0.00 in0.0 mm 0.00 in0.0 mm 0.04 in1.0 mm
09:40 PM 37.5°F3.1°C 41.2°F5.1°C 86% Calm Calm -- 30.23 in1023.7 mb 0.00 in0.0 mm 0.00 in0.0 mm 0.04 in1.0 mm
09:43 PM 37.5°F3.1°C 41.0°F5.0°C 85% Calm Calm -- 30.23 in1023.7 mb 0.00 in0.0 mm 0.00 in0.0 mm 0.04 in1.0 mm
09:46 PM 37.4°F3.0°C 41.5°F5.3°C 87% Calm Calm -- 30.23 in1023.7 mb 0.00 in0.0 mm 0.00 in0.0 mm 0.04 in1.0 mm
09:49 PM 37.5°F3.1°C 41.4°F5.2°C 87% Calm Calm -- 30.23 in1023.7 mb 0.00 in0.0 mm 0.00 in0.0 mm 0.04 in1.0 mm
09:52 PM 37.5°F3.1°C 41.3°F5.2°C 86% Calm Calm -- 30.23 in1023.7 mb 0.00 in0.0 mm 0.00 in0.0 mm 0.04 in1.0 mm
09:55 PM 37.5°F3.1°C 41.1°F5.1°C 86% Calm Calm -- 30.23 in1023.7 mb 0.00 in0.0 mm 0.00 in0.0 mm 0.04 in1.0 mm
09:58 PM 37.5°F3.1°C 41.5°F5.3°C 86% Calm Calm -- 30.23 in1023.7 mb 0.00 in0.0 mm 0.00 in0.0 mm 0.04 in1.0 mm
10:01 PM 37.5°F3.1°C 41.1°F5.1°C 85% Calm Calm -- 30.23 in1023.7 mb 0.00 in0.0 mm 0.00 in0.0 mm 0.04 in1.0 mm
10:04 PM 37.7°F3.2°C 41.4°F5.2°C 86% Calm Calm -- 30.23 in1023.7 mb 0.00 in0.0 mm 0.00 in0.0 mm 0.04 in1.0 mm
10:07 PM 37.7°F3.2°C 41.4°F5.2°C 86% Calm Calm -- 30.23 in1023.7 mb 0.00 in0.0 mm 0.00 in0.0 mm 0.04 in1.0 mm
10:10 PM 38.0°F3.3°C 41.4°F5.2°C 87% Calm Calm -- 30.23 in1023.7 mb 0.00 in0.0 mm 0.00 in0.0 mm 0.04 in1.0 mm
10:13 PM 37.9°F3.3°C 41.3°F5.2°C 87% Calm Calm -- 30.23 in1023.7 mb 0.00 in0.0 mm 0.00 in0.0 mm 0.04 in1.0 mm
10:16 PM 37.9°F3.3°C 41.3°F5.2°C 86% Calm Calm -- 30.23 in1023.7 mb 0.00 in0.0 mm 0.00 in0.0 mm 0.04 in1.0 mm
10:19 PM 37.9°F3.3°C 41.5°F5.3°C 87% Calm Calm -- 30.23 in1023.7 mb 0.00 in0.0 mm 0.00 in0.0 mm 0.04 in1.0 mm
10:22 PM 38.0°F3.3°C 41.4°F5.2°C 87% Calm Calm -- 30.23 in1023.7 mb 0.00 in0.0 mm 0.00 in0.0 mm 0.04 in1.0 mm
10:25 PM 38.0°F3.3°C 41.6°F5.3°C 87% Calm Calm -- 30.23 in1023.7 mb 0.00 in0.0 mm 0.00 in0.0 mm 0.04 in1.0 mm
10:28 PM 37.9°F3.3°C 41.6°F5.3°C 87% Calm Calm -- 30.23 in1023.7 mb 0.00 in0.0 mm 0.00 in0.0 mm 0.04 in1.0 mm
10:31 PM 37.9°F3.3°C 41.5°F5.3°C 87% Calm Calm -- 30.23 in1023.7 mb 0.00 in0.0 mm 0.00 in0.0 mm 0.04 in1.0 mm
10:34 PM 37.7°F3.2°C 41.4°F5.2°C 87% Calm Calm -- 30.23 in1023.7 mb 0.00 in0.0 mm 0.00 in0.0 mm 0.04 in1.0 mm
10:37 PM 38.0°F3.3°C 41.6°F5.3°C 87% Calm Calm -- 30.23 in1023.7 mb 0.00 in0.0 mm 0.00 in0.0 mm 0.04 in1.0 mm
10:40 PM 37.7°F3.2°C 41.4°F5.2°C 87% Calm Calm -- 30.23 in1023.7 mb 0.00 in0.0 mm 0.00 in0.0 mm 0.04 in1.0 mm
10:43 PM 38.0°F3.3°C 41.9°F5.5°C 87% Calm Calm -- 30.23 in1023.7 mb 0.00 in0.0 mm 0.00 in0.0 mm 0.04 in1.0 mm
10:46 PM 38.1°F3.4°C 41.6°F5.3°C 87% Calm Calm -- 30.23 in1023.7 mb 0.00 in0.0 mm 0.00 in0.0 mm 0.04 in1.0 mm
10:49 PM 38.0°F3.3°C 41.8°F5.4°C 87% Calm Calm -- 30.23 in1023.7 mb 0.00 in0.0 mm 0.00 in0.0 mm 0.04 in1.0 mm
10:52 PM 37.9°F3.3°C 41.6°F5.3°C 87% Calm Calm -- 30.23 in1023.7 mb 0.00 in0.0 mm 0.00 in0.0 mm 0.04 in1.0 mm
10:55 PM 37.9°F3.3°C 41.5°F5.3°C 87% Calm Calm -- 30.23 in1023.7 mb 0.00 in0.0 mm 0.00 in0.0 mm 0.04 in1.0 mm
10:58 PM 38.0°F3.3°C 41.6°F5.3°C 87% Calm Calm -- 30.23 in1023.7 mb 0.00 in0.0 mm 0.00 in0.0 mm 0.04 in1.0 mm
11:01 PM 38.1°F3.4°C 41.6°F5.3°C 87% Calm Calm -- 30.23 in1023.7 mb 0.00 in0.0 mm 0.00 in0.0 mm 0.04 in1.0 mm
11:04 PM 38.0°F3.3°C 41.8°F5.4°C 87% Calm Calm -- 30.23 in1023.7 mb 0.00 in0.0 mm 0.00 in0.0 mm 0.04 in1.0 mm
11:07 PM 38.1°F3.4°C 41.8°F5.4°C 87% Calm Calm -- 30.23 in1023.7 mb 0.00 in0.0 mm 0.00 in0.0 mm 0.04 in1.0 mm
11:10 PM 38.0°F3.3°C 41.7°F5.4°C 87% Calm Calm -- 30.23 in1023.7 mb 0.00 in0.0 mm 0.00 in0.0 mm 0.04 in1.0 mm
11:13 PM 38.0°F3.3°C 41.6°F5.3°C 87% Calm Calm -- 30.23 in1023.7 mb 0.00 in0.0 mm 0.00 in0.0 mm 0.04 in1.0 mm
11:16 PM 37.9°F3.3°C 41.8°F5.4°C 87% Calm Calm -- 30.23 in1023.7 mb 0.00 in0.0 mm 0.00 in0.0 mm 0.04 in1.0 mm
11:19 PM 38.0°F3.3°C 41.9°F5.5°C 87% Calm Calm -- 30.23 in1023.7 mb 0.00 in0.0 mm 0.00 in0.0 mm 0.04 in1.0 mm
11:22 PM 38.1°F3.4°C 42.0°F5.6°C 87% Calm Calm -- 30.23 in1023.7 mb 0.00 in0.0 mm 0.00 in0.0 mm 0.04 in1.0 mm
11:25 PM 38.1°F3.4°C 41.8°F5.4°C 87% Calm Calm -- 30.23 in1023.7 mb 0.00 in0.0 mm 0.00 in0.0 mm 0.04 in1.0 mm
11:28 PM 38.1°F3.4°C 41.9°F5.5°C 88% Calm Calm -- 30.23 in1023.7 mb 0.00 in0.0 mm 0.00 in0.0 mm 0.04 in1.0 mm
11:31 PM 38.1°F3.4°C 41.9°F5.5°C 87% Calm Calm -- 30.23 in1023.7 mb 0.00 in0.0 mm 0.00 in0.0 mm 0.04 in1.0 mm
11:34 PM 38.1°F3.4°C 42.0°F5.6°C 87% Calm Calm -- 30.23 in1023.7 mb 0.00 in0.0 mm 0.00 in0.0 mm 0.04 in1.0 mm
11:37 PM 38.4°F3.6°C 42.1°F5.6°C 88% Calm Calm -- 30.23 in1023.7 mb 0.00 in0.0 mm 0.00 in0.0 mm 0.04 in1.0 mm
11:40 PM 38.4°F3.6°C 42.0°F5.6°C 88% Calm Calm -- 30.23 in1023.7 mb 0.00 in0.0 mm 0.00 in0.0 mm 0.04 in1.0 mm
11:43 PM 38.4°F3.6°C 41.8°F5.4°C 87% Calm Calm -- 30.23 in1023.7 mb 0.00 in0.0 mm 0.00 in0.0 mm 0.04 in1.0 mm
11:46 PM 38.4°F3.6°C 41.5°F5.3°C 86% Calm Calm -- 30.23 in1023.7 mb 0.00 in0.0 mm 0.00 in0.0 mm 0.04 in1.0 mm
11:49 PM 38.6°F3.7°C 41.9°F5.5°C 88% Calm Calm -- 30.23 in1023.7 mb 0.00 in0.0 mm 0.00 in0.0 mm 0.04 in1.0 mm
11:52 PM 38.6°F3.7°C 42.2°F5.7°C 88% Calm Calm -- 30.23 in1023.7 mb 0.00 in0.0 mm 0.00 in0.0 mm 0.04 in1.0 mm
11:55 PM 38.6°F3.7°C 42.0°F5.6°C 87% Calm Calm -- 30.23 in1023.7 mb 0.00 in0.0 mm 0.00 in0.0 mm 0.04 in1.0 mm
11:58 PM 38.5°F3.6°C 41.9°F5.5°C 88% Calm Calm -- 30.23 in1023.7 mb 0.00 in0.0 mm 0.00 in0.0 mm 0.04 in1.0 mm